Time,TemperatureF,DewpointF,PressureIn,WindDirection,WindDirectionDegrees,WindSpeedMPH,WindSpeedGustMPH,Humidity,HourlyPrecipIn,Conditions,Clouds,dailyrainin,SoftwareType,DateUTC
2013-03-30 00:00:00,36.0,36.0,30.37,West,270,1.0,3.0,0,0.00,,,0.01,meteohub,2013-03-30 04:00:00,
2013-03-30 00:01:00,36.0,36.0,30.37,West,270,1.0,2.0,0,0.00,,,0.01,meteohub,2013-03-30 04:01:00,
2013-03-30 00:05:00,36.0,36.0,30.37,West,270,1.0,2.0,0,0.00,,,0.00,meteohub,2013-03-30 04:05:00,
2013-03-30 00:07:00,36.0,36.0,30.37,NW,315,2.0,2.0,0,0.00,,,0.00,meteohub,2013-03-30 04:07:00,
2013-03-30 00:10:00,35.8,35.8,30.37,North,0,2.0,2.0,0,0.00,,,0.00,meteohub,2013-03-30 04:10:00,
2013-03-30 00:12:00,35.8,35.8,30.37,North,0,1.0,2.0,0,0.00,,,0.00,meteohub,2013-03-30 04:12:00,
2013-03-30 00:13:00,35.6,35.6,30.37,North,0,0.0,2.0,0,0.00,,,0.00,meteohub,2013-03-30 04:13:00,
2013-03-30 00:14:00,35.6,35.6,30.37,North,0,0.0,2.0,0,0.00,,,0.00,meteohub,2013-03-30 04:14:00,
2013-03-30 00:16:00,35.6,35.6,30.37,NW,315,2.0,2.0,0,0.00,,,0.00,meteohub,2013-03-30 04:16:00,
2013-03-30 00:17:00,35.6,35.6,30.37,NW,315,0.0,2.0,0,0.00,,,0.00,meteohub,2013-03-30 04:17:00,
2013-03-30 00:18:00,35.6,35.6,30.36,North,0,2.0,2.0,0,0.00,,,0.00,meteohub,2013-03-30 04:18:00,
2013-03-30 00:20:00,35.6,35.6,30.36,NE,45,1.0,2.0,0,0.00,,,0.00,meteohub,2013-03-30 04:20:00,
2013-03-30 00:22:00,35.6,35.6,30.36,North,0,2.0,3.0,0,0.00,,,0.00,meteohub,2013-03-30 04:22:00,
2013-03-30 00:24:00,35.4,35.4,30.36,North,0,1.0,3.0,0,0.00,,,0.00,meteohub,2013-03-30 04:24:00,
2013-03-30 00:25:00,35.4,35.4,30.36,North,0,1.0,3.0,0,0.00,,,0.00,meteohub,2013-03-30 04:25:00,
2013-03-30 00:26:00,35.4,35.4,30.36,NE,45,3.0,3.0,0,0.00,,,0.00,meteohub,2013-03-30 04:26:00,
2013-03-30 00:27:00,35.4,35.4,30.36,NW,315,3.0,3.0,0,0.00,,,0.00,meteohub,2013-03-30 04:27:00,
2013-03-30 00:29:00,35.4,35.4,30.36,North,0,0.0,3.0,0,0.00,,,0.00,meteohub,2013-03-30 04:29:00,
2013-03-30 00:30:00,35.4,35.4,30.37,North,0,1.0,3.0,0,0.00,,,0.00,meteohub,2013-03-30 04:30:00,
2013-03-30 00:32:00,35.4,35.4,30.36,North,0,0.0,3.0,0,0.00,,,0.00,meteohub,2013-03-30 04:32:00,
2013-03-30 00:33:00,35.2,35.2,30.36,NW,315,0.0,3.0,0,0.00,,,0.00,meteohub,2013-03-30 04:33:00,
2013-03-30 00:34:00,35.2,35.2,30.36,North,0,1.0,3.0,0,0.00,,,0.00,meteohub,2013-03-30 04:34:00,
2013-03-30 00:37:00,35.2,35.2,30.36,North,0,1.0,3.0,0,0.00,,,0.00,meteohub,2013-03-30 04:37:00,
2013-03-30 00:39:00,35.2,35.2,30.36,NW,315,2.0,3.0,0,0.00,,,0.00,meteohub,2013-03-30 04:39:00,
2013-03-30 00:42:00,35.2,35.2,30.36,North,0,0.0,3.0,0,0.00,,,0.00,meteohub,2013-03-30 04:42:00,
2013-03-30 00:43:00,35.2,35.2,30.36,NW,315,2.0,3.0,0,0.00,,,0.00,meteohub,2013-03-30 04:43:00,
2013-03-30 00:44:00,35.2,35.2,30.36,NW,315,1.0,3.0,0,0.00,,,0.00,meteohub,2013-03-30 04:44:00,
2013-03-30 00:45:00,35.2,35.2,30.36,NW,315,2.0,3.0,0,0.00,,,0.00,meteohub,2013-03-30 04:45:00,
2013-03-30 00:47:00,35.2,35.2,30.36,North,0,3.0,3.0,0,0.00,,,0.00,meteohub,2013-03-30 04:47:00,
2013-03-30 00:49:00,35.2,35.2,30.37,NW,315,0.0,2.0,0,0.00,,,0.00,meteohub,2013-03-30 04:49:00,
2013-03-30 00:50:00,35.2,35.2,30.36,North,0,3.0,3.0,0,0.00,,,0.00,meteohub,2013-03-30 04:50:00,
2013-03-30 00:52:00,35.4,35.4,30.36,NW,315,3.0,3.0,0,0.00,,,0.00,meteohub,2013-03-30 04:52:00,
2013-03-30 00:55:00,35.4,35.4,30.36,North,0,1.0,3.0,0,0.00,,,0.00,meteohub,2013-03-30 04:55:00,
2013-03-30 00:57:00,35.4,35.4,30.37,North,0,1.0,3.0,0,0.00,,,0.00,meteohub,2013-03-30 04:57:00,
2013-03-30 01:00:00,35.4,35.4,30.36,NW,315,0.0,3.0,0,0.00,,,0.00,meteohub,2013-03-30 05:00:00,
2013-03-30 01:01:00,35.4,35.4,30.36,NW,315,0.0,3.0,0,0.00,,,0.00,meteohub,2013-03-30 05:01:00,
2013-03-30 01:02:00,35.4,35.4,30.37,NW,315,0.0,3.0,0,0.00,,,0.00,meteohub,2013-03-30 05:02:00,
2013-03-30 01:03:00,35.4,35.4,30.37,NW,315,0.0,3.0,0,0.00,,,0.00,meteohub,2013-03-30 05:03:00,
2013-03-30 01:06:00,35.4,35.4,30.36,NW,315,0.0,3.0,0,0.00,,,0.00,meteohub,2013-03-30 05:06:00,
2013-03-30 01:07:00,35.2,35.2,30.36,NW,315,0.0,3.0,0,0.00,,,0.00,meteohub,2013-03-30 05:07:00,
2013-03-30 01:08:00,35.1,35.1,30.37,NW,315,0.0,3.0,0,0.00,,,0.00,meteohub,2013-03-30 05:08:00,
2013-03-30 01:11:00,35.1,35.1,30.36,NW,315,2.0,2.0,0,0.00,,,0.00,meteohub,2013-03-30 05:11:00,
2013-03-30 01:12:00,35.1,35.1,30.37,NW,315,2.0,2.0,0,0.00,,,0.00,meteohub,2013-03-30 05:12:00,
2013-03-30 01:13:00,35.1,35.1,30.36,NW,315,2.0,2.0,0,0.00,,,0.00,meteohub,2013-03-30 05:13:00,
2013-03-30 01:17:00,35.1,35.1,30.36,NW,315,0.0,2.0,0,0.00,,,0.00,meteohub,2013-03-30 05:17:00,
2013-03-30 01:18:00,35.1,35.1,30.36,NW,315,0.0,2.0,0,0.00,,,0.00,meteohub,2013-03-30 05:18:00,
2013-03-30 01:19:00,35.1,35.1,30.37,NW,315,0.0,2.0,0,0.00,,,0.00,meteohub,2013-03-30 05:19:00,
2013-03-30 01:23:00,35.1,35.1,30.37,NW,315,1.0,2.0,0,0.00,,,0.00,meteohub,2013-03-30 05:23:00,
2013-03-30 01:24:00,35.1,35.1,30.36,NW,315,1.0,2.0,0,0.00,,,0.00,meteohub,2013-03-30 05:24:00,
2013-03-30 01:25:00,35.1,35.1,30.37,NW,315,0.0,2.0,0,0.00,,,0.00,meteohub,2013-03-30 05:25:00,
2013-03-30 01:28:00,35.1,35.1,30.36,North,0,1.0,2.0,0,0.00,,,0.00,meteohub,2013-03-30 05:28:00,
2013-03-30 01:29:00,35.1,35.1,30.36,NW,315,1.0,2.0,0,0.00,,,0.00,meteohub,2013-03-30 05:29:00,
2013-03-30 01:31:00,35.1,35.1,30.36,North,0,1.0,2.0,0,0.00,,,0.00,meteohub,2013-03-30 05:31:00,
2013-03-30 01:33:00,34.9,34.9,30.36,NE,45,1.0,2.0,0,0.00,,,0.00,meteohub,2013-03-30 05:33:00,
2013-03-30 01:34:00,34.9,34.9,30.36,North,0,1.0,2.0,0,0.00,,,0.00,meteohub,2013-03-30 05:34:00,
2013-03-30 01:37:00,34.9,34.9,30.36,North,0,0.0,2.0,0,0.00,,,0.00,meteohub,2013-03-30 05:37:00,
2013-03-30 01:40:00,34.9,34.9,30.36,North,0,0.0,2.0,0,0.00,,,0.00,meteohub,2013-03-30 05:40:00,
2013-03-30 01:42:00,34.7,34.7,30.36,West,270,0.0,2.0,0,0.00,,,0.00,meteohub,2013-03-30 05:42:00,
2013-03-30 01:45:00,34.7,34.7,30.36,NW,315,1.0,2.0,0,0.00,,,0.00,meteohub,2013-03-30 05:45:00,
2013-03-30 01:46:00,34.7,34.7,30.36,NW,315,0.0,2.0,0,0.00,,,0.00,meteohub,2013-03-30 05:46:00,
2013-03-30 01:47:00,34.5,34.5,30.36,NW,315,0.0,2.0,0,0.00,,,0.00,meteohub,2013-03-30 05:47:00,
2013-03-30 01:50:00,34.5,34.5,30.36,NW,315,2.0,2.0,0,0.00,,,0.00,meteohub,2013-03-30 05:50:00,
2013-03-30 01:51:00,34.5,34.5,30.36,NW,315,2.0,2.0,0,0.00,,,0.00,meteohub,2013-03-30 05:51:00,
2013-03-30 01:52:00,34.5,34.5,30.37,NW,315,0.0,1.0,0,0.00,,,0.00,meteohub,2013-03-30 05:52:00,
2013-03-30 01:56:00,34.3,34.3,30.36,North,0,1.0,2.0,0,0.00,,,0.00,meteohub,2013-03-30 05:56:00,
2013-03-30 01:58:00,34.3,34.3,30.37,North,0,0.0,2.0,0,0.00,,,0.00,meteohub,2013-03-30 05:58:00,
2013-03-30 01:59:00,34.2,34.2,30.36,NW,315,0.0,2.0,0,0.00,,,0.00,meteohub,2013-03-30 05:59:00,
2013-03-30 02:01:00,34.2,34.2,30.36,NW,315,0.0,2.0,0,0.00,,,0.00,meteohub,2013-03-30 06:01:00,
2013-03-30 02:02:00,34.2,34.2,30.36,NW,315,0.0,2.0,0,0.00,,,0.00,meteohub,2013-03-30 06:02:00,
2013-03-30 02:03:00,34.2,34.2,30.36,NW,315,0.0,2.0,0,0.00,,,0.00,meteohub,2013-03-30 06:03:00,
2013-03-30 02:05:00,34.2,34.2,30.36,NW,315,0.0,2.0,0,0.00,,,0.00,meteohub,2013-03-30 06:05:00,
2013-03-30 02:06:00,34.2,34.2,30.36,NW,315,0.0,2.0,0,0.00,,,0.00,meteohub,2013-03-30 06:06:00,
2013-03-30 02:07:00,34.2,34.2,30.36,NW,315,0.0,2.0,0,0.00,,,0.00,meteohub,2013-03-30 06:07:00,
2013-03-30 02:09:00,34.0,34.0,30.36,North,0,1.0,2.0,0,0.00,,,0.00,meteohub,2013-03-30 06:09:00,
2013-03-30 02:11:00,34.0,34.0,30.36,NW,315,2.0,2.0,0,0.00,,,0.00,meteohub,2013-03-30 06:11:00,
2013-03-30 02:12:00,34.0,34.0,30.36,NW,315,1.0,1.0,0,0.00,,,0.00,meteohub,2013-03-30 06:12:00,
2013-03-30 02:13:00,34.0,34.0,30.37,NW,315,0.0,1.0,0,0.00,,,0.00,meteohub,2013-03-30 06:13:00,
2013-03-30 02:14:00,34.0,34.0,30.37,West,270,1.0,1.0,0,0.00,,,0.00,meteohub,2013-03-30 06:14:00,
2013-03-30 02:16:00,34.0,34.0,30.36,West,270,0.0,2.0,0,0.00,,,0.00,meteohub,2013-03-30 06:16:00,
2013-03-30 02:17:00,34.0,34.0,30.37,West,270,0.0,2.0,0,0.00,,,0.00,meteohub,2013-03-30 06:17:00,
2013-03-30 02:20:00,33.8,33.8,30.36,West,270,0.0,2.0,0,0.00,,,0.00,meteohub,2013-03-30 06:20:00,
2013-03-30 02:22:00,33.6,33.6,30.37,West,270,0.0,2.0,0,0.00,,,0.00,meteohub,2013-03-30 06:22:00,
2013-03-30 02:26:00,33.4,33.4,30.36,NW,315,0.0,2.0,0,0.00,,,0.00,meteohub,2013-03-30 06:26:00,
2013-03-30 02:27:00,33.4,33.4,30.36,North,0,0.0,2.0,0,0.00,,,0.00,meteohub,2013-03-30 06:27:00,
2013-03-30 02:28:00,33.4,33.4,30.36,NW,315,2.0,2.0,0,0.00,,,0.00,meteohub,2013-03-30 06:28:00,
2013-03-30 02:29:00,33.4,33.4,30.36,NW,315,0.0,2.0,0,0.00,,,0.00,meteohub,2013-03-30 06:29:00,
2013-03-30 02:31:00,33.3,33.3,30.36,NW,315,1.0,2.0,0,0.00,,,0.00,meteohub,2013-03-30 06:31:00,
2013-03-30 02:32:00,33.3,33.3,30.36,NW,315,0.0,2.0,0,0.00,,,0.00,meteohub,2013-03-30 06:32:00,
2013-03-30 02:34:00,33.3,33.3,30.36,NW,315,1.0,2.0,0,0.00,,,0.00,meteohub,2013-03-30 06:34:00,
2013-03-30 02:37:00,33.1,33.1,30.36,NW,315,0.0,2.0,0,0.00,,,0.00,meteohub,2013-03-30 06:37:00,
2013-03-30 02:40:00,33.1,33.1,30.36,North,0,0.0,2.0,0,0.00,,,0.00,meteohub,2013-03-30 06:40:00,
2013-03-30 02:42:00,32.9,32.9,30.37,North,0,0.0,2.0,0,0.00,,,0.00,meteohub,2013-03-30 06:42:00,
2013-03-30 02:43:00,32.9,32.9,30.36,North,0,1.0,2.0,0,0.00,,,0.00,meteohub,2013-03-30 06:43:00,
2013-03-30 02:46:00,32.7,32.7,30.36,NW,315,1.0,2.0,0,0.00,,,0.00,meteohub,2013-03-30 06:46:00,
2013-03-30 02:47:00,32.7,32.7,30.36,NW,315,1.0,2.0,0,0.00,,,0.00,meteohub,2013-03-30 06:47:00,
2013-03-30 02:48:00,32.5,32.5,30.36,North,0,1.0,2.0,0,0.00,,,0.00,meteohub,2013-03-30 06:48:00,
2013-03-30 02:51:00,32.5,32.5,30.36,North,0,1.0,2.0,0,0.00,,,0.00,meteohub,2013-03-30 06:51:00,
2013-03-30 02:52:00,32.4,32.4,30.36,North,0,1.0,2.0,0,0.00,,,0.00,meteohub,2013-03-30 06:52:00,
2013-03-30 02:53:00,32.4,32.4,30.36,North,0,2.0,2.0,0,0.00,,,0.00,meteohub,2013-03-30 06:53:00,
2013-03-30 02:56:00,32.4,32.4,30.36,NW,315,1.0,2.0,0,0.00,,,0.00,meteohub,2013-03-30 06:56:00,
2013-03-30 02:57:00,32.4,32.4,30.36,North,0,1.0,2.0,0,0.00,,,0.00,meteohub,2013-03-30 06:57:00,
2013-03-30 02:59:00,32.4,32.4,30.36,North,0,2.0,2.0,0,0.00,,,0.00,meteohub,2013-03-30 06:59:00,
2013-03-30 03:02:00,32.4,32.4,30.36,North,0,1.0,2.0,0,0.00,,,0.00,meteohub,2013-03-30 07:02:00,
2013-03-30 03:03:00,32.4,32.4,30.36,North,0,1.0,2.0,0,0.00,,,0.00,meteohub,2013-03-30 07:03:00,
2013-03-30 03:04:00,32.4,32.4,30.36,North,0,1.0,2.0,0,0.00,,,0.00,meteohub,2013-03-30 07:04:00,
2013-03-30 03:05:00,32.4,32.4,30.36,North,0,1.0,2.0,0,0.00,,,0.00,meteohub,2013-03-30 07:05:00,
2013-03-30 03:07:00,32.2,32.2,30.35,North,0,0.0,2.0,0,0.00,,,0.00,meteohub,2013-03-30 07:07:00,
2013-03-30 03:09:00,32.2,32.2,30.36,North,0,0.0,2.0,0,0.00,,,0.00,meteohub,2013-03-30 07:09:00,
2013-03-30 03:11:00,32.2,32.2,30.36,North,0,0.0,2.0,0,0.00,,,0.00,meteohub,2013-03-30 07:11:00,
2013-03-30 03:13:00,31.8,31.8,30.36,North,0,0.0,2.0,0,0.00,,,0.00,meteohub,2013-03-30 07:13:00,
2013-03-30 03:15:00,31.8,31.8,30.36,North,0,0.0,2.0,0,0.00,,,0.00,meteohub,2013-03-30 07:15:00,
2013-03-30 03:17:00,31.8,31.8,30.36,North,0,0.0,1.0,0,0.00,,,0.00,meteohub,2013-03-30 07:17:00,
2013-03-30 03:18:00,31.6,31.6,30.36,North,0,0.0,1.0,0,0.00,,,0.00,meteohub,2013-03-30 07:18:00,
2013-03-30 03:20:00,31.6,31.6,30.36,West,270,1.0,1.0,0,0.00,,,0.00,meteohub,2013-03-30 07:20:00,
2013-03-30 03:22:00,31.6,31.6,30.35,North,0,1.0,1.0,0,0.00,,,0.00,meteohub,2013-03-30 07:22:00,
2013-03-30 03:23:00,31.6,31.6,30.36,North,0,2.0,2.0,0,0.00,,,0.00,meteohub,2013-03-30 07:23:00,
2013-03-30 03:26:00,31.8,31.8,30.36,NE,45,1.0,1.0,0,0.00,,,0.00,meteohub,2013-03-30 07:26:00,
2013-03-30 03:27:00,31.8,31.8,30.36,North,0,1.0,1.0,0,0.00,,,0.00,meteohub,2013-03-30 07:27:00,
2013-03-30 03:28:00,31.8,31.8,30.36,North,0,1.0,1.0,0,0.00,,,0.00,meteohub,2013-03-30 07:28:00,
2013-03-30 03:32:00,31.8,31.8,30.36,NW,315,0.0,2.0,0,0.00,,,0.00,meteohub,2013-03-30 07:32:00,
2013-03-30 03:33:00,31.8,31.8,30.36,NE,45,0.0,2.0,0,0.00,,,0.00,meteohub,2013-03-30 07:33:00,
2013-03-30 03:34:00,31.8,31.8,30.36,NE,45,0.0,2.0,0,0.00,,,0.00,meteohub,2013-03-30 07:34:00,
2013-03-30 03:38:00,31.8,31.8,30.35,North,0,0.0,2.0,0,0.00,,,0.00,meteohub,2013-03-30 07:38:00,
2013-03-30 03:39:00,31.8,31.8,30.36,WSW,248,0.0,2.0,0,0.00,,,0.00,meteohub,2013-03-30 07:39:00,
2013-03-30 03:40:00,31.8,31.8,30.36,West,270,0.0,2.0,0,0.00,,,0.00,meteohub,2013-03-30 07:40:00,
2013-03-30 03:43:00,31.6,31.6,30.36,North,0,0.0,2.0,0,0.00,,,0.00,meteohub,2013-03-30 07:43:00,
2013-03-30 03:44:00,31.6,31.6,30.36,North,0,0.0,2.0,0,0.00,,,0.00,meteohub,2013-03-30 07:44:00,
2013-03-30 03:45:00,31.6,31.6,30.36,North,0,0.0,2.0,0,0.00,,,0.00,meteohub,2013-03-30 07:45:00,
2013-03-30 03:48:00,31.5,31.5,30.36,North,0,0.0,2.0,0,0.00,,,0.00,meteohub,2013-03-30 07:48:00,
2013-03-30 03:49:00,31.5,31.5,30.36,North,0,0.0,2.0,0,0.00,,,0.00,meteohub,2013-03-30 07:49:00,
2013-03-30 03:50:00,31.5,31.5,30.36,North,0,0.0,2.0,0,0.00,,,0.00,meteohub,2013-03-30 07:50:00,
2013-03-30 03:53:00,31.1,31.1,30.36,NW,315,1.0,0.0,0,0.00,,,0.00,meteohub,2013-03-30 07:53:00,
2013-03-30 03:54:00,31.1,31.1,30.36,NW,315,0.0,0.0,0,0.00,,,0.00,meteohub,2013-03-30 07:54:00,
2013-03-30 03:55:00,30.9,30.9,30.36,NW,315,0.0,0.0,0,0.00,,,0.00,meteohub,2013-03-30 07:55:00,
2013-03-30 03:58:00,30.7,30.7,30.36,NW,315,0.0,1.0,0,0.00,,,0.00,meteohub,2013-03-30 07:58:00,
2013-03-30 03:59:00,30.7,30.7,30.36,NW,315,0.0,1.0,0,0.00,,,0.00,meteohub,2013-03-30 07:59:00,
2013-03-30 04:00:00,30.7,30.7,30.36,North,0,0.0,1.0,0,0.00,,,0.00,meteohub,2013-03-30 08:00:00,
2013-03-30 04:02:00,30.7,30.7,30.36,North,0,0.0,1.0,0,0.00,,,0.00,meteohub,2013-03-30 08:02:00,
2013-03-30 04:03:00,30.7,30.7,30.36,North,0,0.0,1.0,0,0.00,,,0.00,meteohub,2013-03-30 08:03:00,
2013-03-30 04:04:00,30.7,30.7,30.36,North,0,0.0,1.0,0,0.00,,,0.00,meteohub,2013-03-30 08:04:00,
2013-03-30 04:06:00,30.7,30.7,30.35,North,0,0.0,1.0,0,0.00,,,0.00,meteohub,2013-03-30 08:06:00,
2013-03-30 04:07:00,31.1,31.1,30.36,NW,315,0.0,1.0,0,0.00,,,0.00,meteohub,2013-03-30 08:07:00,
2013-03-30 04:09:00,31.1,31.1,30.36,NW,315,0.0,1.0,0,0.00,,,0.00,meteohub,2013-03-30 08:09:00,
2013-03-30 04:12:00,31.1,31.1,30.36,NW,315,0.0,0.0,0,0.00,,,0.00,meteohub,2013-03-30 08:12:00,
2013-03-30 04:13:00,31.1,31.1,30.35,NW,315,0.0,0.0,0,0.00,,,0.00,meteohub,2013-03-30 08:13:00,
2013-03-30 04:15:00,30.9,30.9,30.35,NW,315,0.0,0.0,0,0.00,,,0.00,meteohub,2013-03-30 08:15:00,
2013-03-30 04:17:00,30.9,30.9,30.35,NW,315,0.0,0.0,0,0.00,,,0.00,meteohub,2013-03-30 08:17:00,
2013-03-30 04:18:00,30.9,30.9,30.36,NW,315,0.0,0.0,0,0.00,,,0.00,meteohub,2013-03-30 08:18:00,
2013-03-30 04:20:00,30.9,30.9,30.36,NW,315,0.0,0.0,0,0.00,,,0.00,meteohub,2013-03-30 08:20:00,
2013-03-30 04:22:00,31.1,31.1,30.36,NW,315,0.0,0.0,0,0.00,,,0.00,meteohub,2013-03-30 08:22:00,
2013-03-30 04:23:00,31.1,31.1,30.36,NW,315,0.0,0.0,0,0.00,,,0.00,meteohub,2013-03-30 08:23:00,
2013-03-30 04:25:00,31.1,31.1,30.36,NW,315,0.0,0.0,0,0.00,,,0.00,meteohub,2013-03-30 08:25:00,
2013-03-30 04:27:00,31.1,31.1,30.36,NW,315,0.0,0.0,0,0.00,,,0.00,meteohub,2013-03-30 08:27:00,
2013-03-30 04:28:00,31.1,31.1,30.35,NW,315,0.0,0.0,0,0.00,,,0.00,meteohub,2013-03-30 08:28:00,
2013-03-30 04:32:00,30.9,30.9,30.35,NW,315,0.0,0.0,0,0.00,,,0.00,meteohub,2013-03-30 08:32:00,
2013-03-30 04:33:00,30.9,30.9,30.35,NW,315,0.0,0.0,0,0.00,,,0.00,meteohub,2013-03-30 08:33:00,
2013-03-30 04:37:00,30.9,30.9,30.36,NW,315,0.0,0.0,0,0.00,,,0.00,meteohub,2013-03-30 08:37:00,
2013-03-30 04:38:00,30.9,30.9,30.36,NW,315,0.0,0.0,0,0.00,,,0.00,meteohub,2013-03-30 08:38:00,
2013-03-30 04:39:00,31.1,31.1,30.36,NW,315,0.0,0.0,0,0.00,,,0.00,meteohub,2013-03-30 08:39:00,
2013-03-30 04:43:00,31.3,31.3,30.35,NW,315,0.0,0.0,0,0.00,,,0.00,meteohub,2013-03-30 08:43:00,
2013-03-30 04:44:00,31.3,31.3,30.35,NW,315,0.0,0.0,0,0.00,,,0.00,meteohub,2013-03-30 08:44:00,
2013-03-30 04:45:00,31.3,31.3,30.35,NW,315,0.0,0.0,0,0.00,,,0.00,meteohub,2013-03-30 08:45:00,
2013-03-30 04:49:00,31.3,31.3,30.36,NW,315,0.0,0.0,0,0.00,,,0.00,meteohub,2013-03-30 08:49:00,
2013-03-30 04:50:00,31.3,31.3,30.36,NW,315,0.0,0.0,0,0.00,,,0.00,meteohub,2013-03-30 08:50:00,
2013-03-30 04:54:00,31.5,31.5,30.36,NW,315,0.0,0.0,0,0.00,,,0.00,meteohub,2013-03-30 08:54:00,
2013-03-30 04:56:00,31.5,31.5,30.35,NW,315,0.0,0.0,0,0.00,,,0.00,meteohub,2013-03-30 08:56:00,
2013-03-30 04:59:00,31.6,31.6,30.36,NW,315,0.0,0.0,0,0.00,,,0.00,meteohub,2013-03-30 08:59:00,
2013-03-30 05:00:00,31.5,31.5,30.36,NW,315,0.0,0.0,0,0.00,,,0.00,meteohub,2013-03-30 09:00:00,
2013-03-30 05:01:00,31.5,31.5,30.36,NW,315,0.0,0.0,0,0.00,,,0.00,meteohub,2013-03-30 09:01:00,
2013-03-30 05:02:00,31.5,31.5,30.36,NW,315,0.0,0.0,0,0.00,,,0.00,meteohub,2013-03-30 09:02:00,
2013-03-30 05:04:00,31.5,31.5,30.36,NW,315,0.0,0.0,0,0.00,,,0.00,meteohub,2013-03-30 09:04:00,
2013-03-30 05:07:00,31.5,31.5,30.36,NW,315,0.0,0.0,0,0.00,,,0.00,meteohub,2013-03-30 09:07:00,
2013-03-30 05:09:00,31.3,31.3,30.36,North,0,0.0,0.0,0,0.00,,,0.00,meteohub,2013-03-30 09:09:00,
2013-03-30 05:10:00,31.3,31.3,30.36,North,0,0.0,0.0,0,0.00,,,0.00,meteohub,2013-03-30 09:10:00,
2013-03-30 05:12:00,31.3,31.3,30.36,North,0,0.0,0.0,0,0.00,,,0.00,meteohub,2013-03-30 09:12:00,
2013-03-30 05:13:00,31.3,31.3,30.36,North,0,0.0,0.0,0,0.00,,,0.00,meteohub,2013-03-30 09:13:00,
2013-03-30 05:14:00,31.3,31.3,30.36,North,0,0.0,0.0,0,0.00,,,0.00,meteohub,2013-03-30 09:14:00,
2013-03-30 05:15:00,31.3,31.3,30.36,North,0,0.0,0.0,0,0.00,,,0.00,meteohub,2013-03-30 09:15:00,
2013-03-30 05:18:00,31.5,31.5,30.35,North,0,0.0,0.0,0,0.00,,,0.00,meteohub,2013-03-30 09:18:00,
2013-03-30 05:19:00,31.5,31.5,30.36,North,0,0.0,0.0,0,0.00,,,0.00,meteohub,2013-03-30 09:19:00,
2013-03-30 05:20:00,31.5,31.5,30.35,North,0,0.0,0.0,0,0.00,,,0.00,meteohub,2013-03-30 09:20:00,
2013-03-30 05:23:00,31.3,31.3,30.36,North,0,0.0,0.0,0,0.00,,,0.00,meteohub,2013-03-30 09:23:00,
2013-03-30 05:24:00,31.3,31.3,30.35,North,0,0.0,0.0,0,0.00,,,0.00,meteohub,2013-03-30 09:24:00,
2013-03-30 05:25:00,31.1,31.1,30.35,North,0,0.0,0.0,0,0.00,,,0.00,meteohub,2013-03-30 09:25:00,
2013-03-30 05:27:00,31.1,31.1,30.36,North,0,0.0,0.0,0,0.00,,,0.00,meteohub,2013-03-30 09:27:00,
2013-03-30 05:29:00,31.1,31.1,30.36,North,0,0.0,0.0,0,0.00,,,0.00,meteohub,2013-03-30 09:29:00,
2013-03-30 05:30:00,30.9,30.9,30.36,North,0,0.0,0.0,0,0.00,,,0.00,meteohub,2013-03-30 09:30:00,
2013-03-30 05:32:00,30.9,30.9,30.36,North,0,0.0,0.0,0,0.00,,,0.00,meteohub,2013-03-30 09:32:00,
2013-03-30 05:34:00,30.7,30.7,30.36,North,0,0.0,0.0,0,0.00,,,0.00,meteohub,2013-03-30 09:34:00,
2013-03-30 05:35:00,30.7,30.7,30.36,North,0,0.0,0.0,0,0.00,,,0.00,meteohub,2013-03-30 09:35:00,
2013-03-30 05:38:00,30.4,30.4,30.36,North,0,0.0,0.0,0,0.00,,,0.00,meteohub,2013-03-30 09:38:00,
2013-03-30 05:40:00,30.0,30.0,30.36,North,0,0.0,0.0,0,0.00,,,0.00,meteohub,2013-03-30 09:40:00,
2013-03-30 05:45:00,29.8,29.8,30.36,North,0,0.0,0.0,0,0.00,,,0.00,meteohub,2013-03-30 09:45:00,
2013-03-30 05:47:00,29.8,29.8,30.35,North,0,0.0,0.0,0,0.00,,,0.00,meteohub,2013-03-30 09:47:00,
2013-03-30 05:50:00,29.5,29.5,30.36,North,0,0.0,0.0,0,0.00,,,0.00,meteohub,2013-03-30 09:50:00,
2013-03-30 05:52:00,29.5,29.5,30.36,North,0,0.0,0.0,0,0.00,,,0.00,meteohub,2013-03-30 09:52:00,
2013-03-30 05:53:00,29.7,29.7,30.36,North,0,0.0,0.0,0,0.00,,,0.00,meteohub,2013-03-30 09:53:00,
2013-03-30 05:56:00,30.2,30.2,30.36,North,0,0.0,0.0,0,0.00,,,0.00,meteohub,2013-03-30 09:56:00,
2013-03-30 05:57:00,30.4,30.4,30.36,North,0,0.0,0.0,0,0.00,,,0.00,meteohub,2013-03-30 09:57:00,
2013-03-30 05:58:00,30.4,30.4,30.36,North,0,0.0,0.0,0,0.00,,,0.00,meteohub,2013-03-30 09:58:00,
2013-03-30 05:59:00,30.6,30.6,30.35,North,0,0.0,0.0,0,0.00,,,0.00,meteohub,2013-03-30 09:59:00,
2013-03-30 06:01:00,30.6,30.6,30.36,North,0,0.0,0.0,0,0.00,,,0.00,meteohub,2013-03-30 10:01:00,
2013-03-30 06:02:00,30.7,30.7,30.36,North,0,0.0,0.0,0,0.00,,,0.00,meteohub,2013-03-30 10:02:00,
2013-03-30 06:04:00,30.7,30.7,30.37,NW,315,0.0,0.0,0,0.00,,,0.00,meteohub,2013-03-30 10:04:00,
2013-03-30 06:06:00,30.7,30.7,30.36,NW,315,0.0,0.0,0,0.00,,,0.00,meteohub,2013-03-30 10:06:00,
2013-03-30 06:08:00,30.7,30.7,30.36,NW,315,0.0,0.0,0,0.00,,,0.00,meteohub,2013-03-30 10:08:00,
2013-03-30 06:09:00,30.7,30.7,30.36,NW,315,0.0,0.0,0,0.00,,,0.00,meteohub,2013-03-30 10:09:00,
2013-03-30 06:12:00,30.9,30.9,30.36,North,0,0.0,0.0,0,0.00,,,0.00,meteohub,2013-03-30 10:12:00,
2013-03-30 06:14:00,30.9,30.9,30.36,North,0,0.0,0.0,0,0.00,,,0.00,meteohub,2013-03-30 10:14:00,
2013-03-30 06:15:00,30.9,30.9,30.36,North,0,0.0,0.0,0,0.00,,,0.00,meteohub,2013-03-30 10:15:00,
2013-03-30 06:18:00,30.7,30.7,30.36,North,0,0.0,0.0,0,0.00,,,0.00,meteohub,2013-03-30 10:18:00,
2013-03-30 06:20:00,30.7,30.7,30.36,North,0,0.0,0.0,0,0.00,,,0.00,meteohub,2013-03-30 10:20:00,
2013-03-30 06:21:00,30.7,30.7,30.36,North,0,0.0,0.0,0,0.00,,,0.00,meteohub,2013-03-30 10:21:00,
2013-03-30 06:23:00,30.6,30.6,30.37,North,0,0.0,0.0,0,0.00,,,0.00,meteohub,2013-03-30 10:23:00,
2013-03-30 06:25:00,30.6,30.6,30.37,West,270,0.0,0.0,0,0.00,,,0.00,meteohub,2013-03-30 10:25:00,
2013-03-30 06:26:00,30.6,30.6,30.36,West,270,0.0,0.0,0,0.00,,,0.00,meteohub,2013-03-30 10:26:00,
2013-03-30 06:28:00,30.6,30.6,30.37,West,270,0.0,0.0,0,0.00,,,0.00,meteohub,2013-03-30 10:28:00,
2013-03-30 06:30:00,30.4,30.4,30.37,West,270,0.0,0.0,0,0.00,,,0.00,meteohub,2013-03-30 10:30:00,
2013-03-30 06:31:00,30.4,30.4,30.37,West,270,0.0,0.0,0,0.00,,,0.00,meteohub,2013-03-30 10:31:00,
2013-03-30 06:34:00,30.4,30.4,30.36,West,270,0.0,0.0,0,0.00,,,0.00,meteohub,2013-03-30 10:34:00,
2013-03-30 06:36:00,30.4,30.4,30.36,West,270,0.0,0.0,0,0.00,,,0.00,meteohub,2013-03-30 10:36:00,
2013-03-30 06:37:00,30.4,30.4,30.36,West,270,0.0,0.0,0,0.00,,,0.00,meteohub,2013-03-30 10:37:00,
2013-03-30 06:38:00,30.2,30.2,30.36,West,270,0.0,0.0,0,0.00,,,0.00,meteohub,2013-03-30 10:38:00,
2013-03-30 06:40:00,30.0,30.0,30.36,West,270,0.0,0.0,0,0.00,,,0.00,meteohub,2013-03-30 10:40:00,
2013-03-30 06:41:00,29.8,29.8,30.36,West,270,0.0,0.0,0,0.00,,,0.00,meteohub,2013-03-30 10:41:00,
2013-03-30 06:42:00,29.8,29.8,30.36,West,270,0.0,0.0,0,0.00,,,0.00,meteohub,2013-03-30 10:42:00,
2013-03-30 06:44:00,29.7,29.7,30.36,West,270,0.0,0.0,0,0.00,,,0.00,meteohub,2013-03-30 10:44:00,
2013-03-30 06:45:00,29.5,29.5,30.36,West,270,0.0,0.0,0,0.00,,,0.00,meteohub,2013-03-30 10:45:00,
2013-03-30 06:47:00,29.5,29.5,30.36,West,270,0.0,0.0,0,0.00,,,0.00,meteohub,2013-03-30 10:47:00,
2013-03-30 06:48:00,29.5,29.5,30.36,West,270,0.0,0.0,0,0.00,,,0.00,meteohub,2013-03-30 10:48:00,
2013-03-30 06:49:00,29.5,29.5,30.36,West,270,0.0,0.0,0,0.00,,,0.00,meteohub,2013-03-30 10:49:00,
2013-03-30 06:50:00,29.5,29.5,30.36,West,270,0.0,0.0,0,0.00,,,0.00,meteohub,2013-03-30 10:50:00,
2013-03-30 06:52:00,29.5,29.5,30.36,West,270,0.0,0.0,0,0.00,,,0.00,meteohub,2013-03-30 10:52:00,
2013-03-30 06:54:00,29.7,29.7,30.36,West,270,0.0,0.0,0,0.00,,,0.00,meteohub,2013-03-30 10:54:00,
2013-03-30 06:57:00,30.0,30.0,30.36,West,270,0.0,0.0,0,0.00,,,0.00,meteohub,2013-03-30 10:57:00,
2013-03-30 07:00:00,30.2,30.2,30.36,West,270,0.0,0.0,0,0.00,,,0.00,meteohub,2013-03-30 11:00:00,
2013-03-30 07:02:00,30.2,30.2,30.37,West,270,0.0,0.0,0,0.00,,,0.00,meteohub,2013-03-30 11:02:00,
2013-03-30 07:03:00,30.2,30.2,30.37,West,270,0.0,0.0,0,0.00,,,0.00,meteohub,2013-03-30 11:03:00,
2013-03-30 07:05:00,30.2,30.2,30.37,West,270,0.0,0.0,0,0.00,,,0.00,meteohub,2013-03-30 11:05:00,
2013-03-30 07:07:00,30.4,30.4,30.37,South,180,0.0,0.0,0,0.00,,,0.00,meteohub,2013-03-30 11:07:00,
2013-03-30 07:08:00,30.4,30.4,30.37,South,180,0.0,0.0,0,0.00,,,0.00,meteohub,2013-03-30 11:08:00,
2013-03-30 07:10:00,30.4,30.4,30.37,East,90,0.0,0.0,0,0.00,,,0.00,meteohub,2013-03-30 11:10:00,
2013-03-30 07:13:00,30.2,30.2,30.37,East,90,0.0,0.0,0,0.00,,,0.00,meteohub,2013-03-30 11:13:00,
2013-03-30 07:15:00,30.0,30.0,30.37,East,90,0.0,0.0,0,0.00,,,0.00,meteohub,2013-03-30 11:15:00,
2013-03-30 07:16:00,29.8,29.8,30.37,East,90,0.0,0.0,0,0.00,,,0.00,meteohub,2013-03-30 11:16:00,
2013-03-30 07:18:00,29.8,29.8,30.37,East,90,0.0,0.0,0,0.00,,,0.00,meteohub,2013-03-30 11:18:00,
2013-03-30 07:21:00,29.7,29.7,30.37,East,90,0.0,0.0,0,0.00,,,0.00,meteohub,2013-03-30 11:21:00,
2013-03-30 07:22:00,29.7,29.7,30.37,East,90,0.0,0.0,0,0.00,,,0.00,meteohub,2013-03-30 11:22:00,
2013-03-30 07:23:00,29.7,29.7,30.38,East,90,0.0,0.0,0,0.00,,,0.00,meteohub,2013-03-30 11:23:00,
2013-03-30 07:24:00,29.7,29.7,30.38,East,90,0.0,0.0,0,0.00,,,0.00,meteohub,2013-03-30 11:24:00,
2013-03-30 07:27:00,29.8,29.8,30.38,South,180,0.0,0.0,0,0.00,,,0.00,meteohub,2013-03-30 11:27:00,
2013-03-30 07:29:00,30.0,30.0,30.37,South,180,0.0,0.0,0,0.00,,,0.00,meteohub,2013-03-30 11:29:00,
2013-03-30 07:30:00,30.2,30.2,30.38,South,180,0.0,0.0,0,0.00,,,0.00,meteohub,2013-03-30 11:30:00,
2013-03-30 07:32:00,30.2,30.2,30.38,South,180,0.0,0.0,0,0.00,,,0.00,meteohub,2013-03-30 11:32:00,
2013-03-30 07:33:00,30.4,30.4,30.38,South,180,1.0,0.0,0,0.00,,,0.00,meteohub,2013-03-30 11:33:00,
2013-03-30 07:34:00,30.4,30.4,30.38,South,180,1.0,0.0,0,0.00,,,0.00,meteohub,2013-03-30 11:34:00,
2013-03-30 07:35:00,30.4,30.4,30.38,South,180,1.0,0.0,0,0.00,,,0.00,meteohub,2013-03-30 11:35:00,
2013-03-30 07:37:00,30.6,30.6,30.38,SE,135,2.0,2.0,0,0.00,,,0.00,meteohub,2013-03-30 11:37:00,
2013-03-30 07:38:00,30.7,30.7,30.37,WSW,248,2.0,2.0,0,0.00,,,0.00,meteohub,2013-03-30 11:38:00,
2013-03-30 07:39:00,30.9,30.9,30.38,South,180,2.0,2.0,0,0.00,,,0.00,meteohub,2013-03-30 11:39:00,
2013-03-30 07:40:00,31.1,31.1,30.38,East,90,1.0,2.0,0,0.00,,,0.00,meteohub,2013-03-30 11:40:00,
2013-03-30 07:42:00,31.3,31.3,30.37,SE,135,0.0,2.0,0,0.00,,,0.00,meteohub,2013-03-30 11:42:00,
2013-03-30 07:43:00,31.3,31.3,30.37,SE,135,0.0,2.0,0,0.00,,,0.00,meteohub,2013-03-30 11:43:00,
2013-03-30 07:45:00,31.5,31.5,30.38,SE,135,0.0,2.0,0,0.00,,,0.00,meteohub,2013-03-30 11:45:00,
2013-03-30 07:48:00,31.8,31.8,30.38,South,180,0.0,2.0,0,0.00,,,0.00,meteohub,2013-03-30 11:48:00,
2013-03-30 07:50:00,31.8,31.8,30.38,South,180,0.0,2.0,0,0.00,,,0.00,meteohub,2013-03-30 11:50:00,
2013-03-30 07:54:00,32.4,32.4,30.38,SE,135,0.0,2.0,0,0.00,,,0.00,meteohub,2013-03-30 11:54:00,
2013-03-30 07:55:00,32.5,32.5,30.38,SE,135,0.0,2.0,0,0.00,,,0.00,meteohub,2013-03-30 11:55:00,
2013-03-30 08:00:00,33.4,33.4,30.38,SE,135,0.0,0.0,0,0.00,,,0.00,meteohub,2013-03-30 12:00:00,
2013-03-30 08:02:00,33.6,33.6,30.38,SE,135,0.0,0.0,0,0.00,,,0.00,meteohub,2013-03-30 12:02:00,
2013-03-30 08:07:00,34.3,34.3,30.38,SE,135,0.0,0.0,0,0.00,,,0.00,meteohub,2013-03-30 12:07:00,
2013-03-30 08:08:00,34.3,34.3,30.38,SE,135,0.0,0.0,0,0.00,,,0.00,meteohub,2013-03-30 12:08:00,
2013-03-30 08:13:00,34.7,34.7,30.38,SE,135,0.0,0.0,0,0.00,,,0.00,meteohub,2013-03-30 12:13:00,
2013-03-30 08:14:00,35.1,35.1,30.38,SE,135,0.0,0.0,0,0.00,,,0.00,meteohub,2013-03-30 12:14:00,
2013-03-30 08:15:00,35.1,35.1,30.38,SE,135,0.0,0.0,0,0.00,,,0.00,meteohub,2013-03-30 12:15:00,
2013-03-30 08:18:00,35.1,35.1,30.38,SE,135,0.0,0.0,0,0.00,,,0.00,meteohub,2013-03-30 12:18:00,
2013-03-30 08:19:00,35.1,35.1,30.38,SE,135,0.0,0.0,0,0.00,,,0.00,meteohub,2013-03-30 12:19:00,
2013-03-30 08:20:00,35.1,35.1,30.38,SE,135,0.0,0.0,0,0.00,,,0.00,meteohub,2013-03-30 12:20:00,
2013-03-30 08:23:00,36.5,36.5,30.38,SE,135,0.0,0.0,0,0.00,,,0.00,meteohub,2013-03-30 12:23:00,
2013-03-30 08:24:00,36.7,36.7,30.38,SE,135,0.0,0.0,0,0.00,,,0.00,meteohub,2013-03-30 12:24:00,
2013-03-30 08:28:00,37.6,37.6,30.38,SE,135,1.0,1.0,0,0.00,,,0.00,meteohub,2013-03-30 12:28:00,
2013-03-30 08:29:00,37.9,37.9,30.38,SE,135,1.0,1.0,0,0.00,,,0.00,meteohub,2013-03-30 12:29:00,
2013-03-30 08:30:00,38.1,38.1,30.38,SE,135,0.0,1.0,0,0.00,,,0.00,meteohub,2013-03-30 12:30:00,
2013-03-30 08:33:00,38.7,38.7,30.38,SE,135,1.0,2.0,0,0.00,,,0.00,meteohub,2013-03-30 12:33:00,
2013-03-30 08:34:00,38.7,38.7,30.38,SE,135,1.0,2.0,0,0.00,,,0.00,meteohub,2013-03-30 12:34:00,
2013-03-30 08:35:00,38.8,38.8,30.38,SE,135,1.0,2.0,0,0.00,,,0.00,meteohub,2013-03-30 12:35:00,
2013-03-30 08:39:00,38.7,38.7,30.38,East,90,2.0,2.0,0,0.00,,,0.00,meteohub,2013-03-30 12:39:00,
2013-03-30 08:40:00,38.7,38.7,30.38,East,90,1.0,2.0,0,0.00,,,0.00,meteohub,2013-03-30 12:40:00,
2013-03-30 08:44:00,39.0,39.0,30.38,SE,135,0.0,2.0,0,0.00,,,0.00,meteohub,2013-03-30 12:44:00,
2013-03-30 08:45:00,39.0,39.0,30.38,SE,135,0.0,2.0,0,0.00,,,0.00,meteohub,2013-03-30 12:45:00,
2013-03-30 08:46:00,39.0,39.0,30.38,SE,135,0.0,2.0,0,0.00,,,0.00,meteohub,2013-03-30 12:46:00,
2013-03-30 08:49:00,39.9,39.9,30.39,SE,135,0.0,2.0,0,0.00,,,0.00,meteohub,2013-03-30 12:49:00,
2013-03-30 08:50:00,40.1,40.1,30.38,SE,135,0.0,2.0,0,0.00,,,0.00,meteohub,2013-03-30 12:50:00,
2013-03-30 08:51:00,40.3,40.3,30.39,SE,135,0.0,2.0,0,0.00,,,0.00,meteohub,2013-03-30 12:51:00,
2013-03-30 08:56:00,40.1,40.1,30.38,WSW,248,2.0,2.0,0,0.00,,,0.00,meteohub,2013-03-30 12:56:00,
2013-03-30 08:57:00,39.7,39.7,30.39,WSW,248,3.0,3.0,0,0.00,,,0.00,meteohub,2013-03-30 12:57:00,
2013-03-30 09:01:00,39.0,39.0,30.39,South,180,2.0,4.0,0,0.00,,,0.00,meteohub,2013-03-30 13:01:00,
2013-03-30 09:02:00,39.0,39.0,30.39,South,180,2.0,4.0,0,0.00,,,0.00,meteohub,2013-03-30 13:02:00,
2013-03-30 09:03:00,39.0,39.0,30.39,South,180,2.0,4.0,0,0.00,,,0.00,meteohub,2013-03-30 13:03:00,
2013-03-30 09:06:00,39.0,39.0,30.39,South,180,2.0,4.0,0,0.00,,,0.00,meteohub,2013-03-30 13:06:00,
2013-03-30 09:07:00,38.8,38.8,30.38,WSW,248,3.0,4.0,0,0.00,,,0.00,meteohub,2013-03-30 13:07:00,
2013-03-30 09:08:00,39.0,39.0,30.39,South,180,3.0,4.0,0,0.00,,,0.00,meteohub,2013-03-30 13:08:00,
2013-03-30 09:12:00,39.0,39.0,30.39,South,180,3.0,4.0,0,0.00,,,0.00,meteohub,2013-03-30 13:12:00,
2013-03-30 09:14:00,39.2,39.2,30.39,East,90,2.0,4.0,0,0.00,,,0.00,meteohub,2013-03-30 13:14:00,
2013-03-30 09:17:00,40.1,40.1,30.39,South,180,1.0,3.0,0,0.00,,,0.00,meteohub,2013-03-30 13:17:00,
2013-03-30 09:18:00,40.1,40.1,30.39,South,180,2.0,3.0,0,0.00,,,0.00,meteohub,2013-03-30 13:18:00,
2013-03-30 09:19:00,40.1,40.1,30.39,South,180,2.0,3.0,0,0.00,,,0.00,meteohub,2013-03-30 13:19:00,
2013-03-30 09:23:00,40.8,40.8,30.39,NW,315,2.0,3.0,0,0.00,,,0.00,meteohub,2013-03-30 13:23:00,
2013-03-30 09:24:00,40.8,40.8,30.39,West,270,2.0,3.0,0,0.00,,,0.00,meteohub,2013-03-30 13:24:00,
2013-03-30 09:28:00,40.8,40.8,30.40,NW,315,4.0,4.0,0,0.00,,,0.00,meteohub,2013-03-30 13:28:00,
2013-03-30 09:29:00,40.5,40.5,30.40,West,270,4.0,4.0,0,0.00,,,0.00,meteohub,2013-03-30 13:29:00,
2013-03-30 09:30:00,40.3,40.3,30.40,West,270,3.0,6.0,0,0.00,,,0.00,meteohub,2013-03-30 13:30:00,
2013-03-30 09:33:00,40.1,40.1,30.40,WSW,248,3.0,6.0,0,0.00,,,0.00,meteohub,2013-03-30 13:33:00,
2013-03-30 09:34:00,40.1,40.1,30.40,WSW,248,3.0,6.0,0,0.00,,,0.00,meteohub,2013-03-30 13:34:00,
2013-03-30 09:35:00,40.3,40.3,30.40,NW,315,2.0,6.0,0,0.00,,,0.00,meteohub,2013-03-30 13:35:00,
2013-03-30 09:38:00,40.8,40.8,30.40,South,180,1.0,6.0,0,0.00,,,0.00,meteohub,2013-03-30 13:38:00,
2013-03-30 09:39:00,41.4,41.4,30.40,NW,315,3.0,6.0,0,0.00,,,0.00,meteohub,2013-03-30 13:39:00,
2013-03-30 09:40:00,41.4,41.4,30.40,NW,315,3.0,6.0,0,0.00,,,0.00,meteohub,2013-03-30 13:40:00,
2013-03-30 09:42:00,41.7,41.7,30.40,West,270,2.0,6.0,0,0.00,,,0.00,meteohub,2013-03-30 13:42:00,
2013-03-30 09:45:00,42.4,42.4,30.40,NE,45,2.0,6.0,0,0.00,,,0.00,meteohub,2013-03-30 13:45:00,
2013-03-30 09:46:00,42.6,42.6,30.40,South,180,3.0,6.0,0,0.00,,,0.00,meteohub,2013-03-30 13:46:00,
2013-03-30 09:47:00,42.8,42.8,30.40,WSW,248,3.0,6.0,0,0.00,,,0.00,meteohub,2013-03-30 13:47:00,
2013-03-30 09:50:00,42.6,42.6,30.40,WSW,248,3.0,6.0,0,0.00,,,0.00,meteohub,2013-03-30 13:50:00,
2013-03-30 09:52:00,42.4,42.4,30.40,WSW,248,2.0,5.0,0,0.00,,,0.00,meteohub,2013-03-30 13:52:00,
2013-03-30 09:55:00,42.6,42.6,30.40,WSW,248,4.0,5.0,0,0.00,,,0.00,meteohub,2013-03-30 13:55:00,
2013-03-30 09:56:00,42.6,42.6,30.40,WSW,248,5.0,5.0,0,0.00,,,0.00,meteohub,2013-03-30 13:56:00,
2013-03-30 09:57:00,42.6,42.6,30.40,NW,315,2.0,5.0,0,0.00,,,0.00,meteohub,2013-03-30 13:57:00,
2013-03-30 09:58:00,42.6,42.6,30.40,NW,315,2.0,5.0,0,0.00,,,0.00,meteohub,2013-03-30 13:58:00,
2013-03-30 10:01:00,42.6,42.6,30.40,North,0,4.0,5.0,0,0.00,,,0.00,meteohub,2013-03-30 14:01:00,
2013-03-30 10:02:00,42.8,42.8,30.40,West,270,4.0,5.0,0,0.00,,,0.00,meteohub,2013-03-30 14:02:00,
2013-03-30 10:04:00,43.3,43.3,30.40,NW,315,3.0,5.0,0,0.00,,,0.00,meteohub,2013-03-30 14:04:00,
2013-03-30 10:07:00,43.7,43.7,30.40,West,270,3.0,5.0,0,0.00,,,0.00,meteohub,2013-03-30 14:07:00,
2013-03-30 10:08:00,43.7,43.7,30.40,West,270,3.0,5.0,0,0.00,,,0.00,meteohub,2013-03-30 14:08:00,
2013-03-30 10:10:00,44.2,44.2,30.40,NW,315,2.0,5.0,0,0.00,,,0.00,meteohub,2013-03-30 14:10:00,
2013-03-30 10:13:00,44.1,44.1,30.40,WSW,248,3.0,6.0,0,0.00,,,0.00,meteohub,2013-03-30 14:13:00,
2013-03-30 10:15:00,43.9,43.9,30.40,East,90,4.0,8.0,0,0.00,,,0.00,meteohub,2013-03-30 14:15:00,
2013-03-30 10:16:00,43.9,43.9,30.40,East,90,4.0,8.0,0,0.00,,,0.00,meteohub,2013-03-30 14:16:00,
2013-03-30 10:18:00,43.9,43.9,30.40,West,270,3.0,8.0,0,0.00,,,0.00,meteohub,2013-03-30 14:18:00,
2013-03-30 10:19:00,43.9,43.9,30.39,NW,315,5.0,8.0,0,0.00,,,0.00,meteohub,2013-03-30 14:19:00,
2013-03-30 10:21:00,44.1,44.1,30.39,West,270,4.0,8.0,0,0.00,,,0.00,meteohub,2013-03-30 14:21:00,
2013-03-30 10:24:00,44.1,44.1,30.40,NW,315,4.0,8.0,0,0.00,,,0.00,meteohub,2013-03-30 14:24:00,
2013-03-30 10:25:00,44.1,44.1,30.40,North,0,4.0,8.0,0,0.00,,,0.00,meteohub,2013-03-30 14:25:00,
2013-03-30 10:27:00,44.1,44.1,30.39,WSW,248,4.0,8.0,0,0.00,,,0.00,meteohub,2013-03-30 14:27:00,
2013-03-30 10:29:00,44.1,44.1,30.40,North,0,4.0,8.0,0,0.00,,,0.00,meteohub,2013-03-30 14:29:00,
2013-03-30 10:30:00,44.4,44.4,30.39,East,90,3.0,8.0,0,0.00,,,0.00,meteohub,2013-03-30 14:30:00,
2013-03-30 10:32:00,44.8,44.8,30.39,North,0,4.0,5.0,0,0.00,,,0.00,meteohub,2013-03-30 14:32:00,
2013-03-30 10:33:00,44.8,44.8,30.39,NW,315,4.0,5.0,0,0.00,,,0.00,meteohub,2013-03-30 14:33:00,
2013-03-30 10:34:00,44.8,44.8,30.39,North,0,4.0,5.0,0,0.00,,,0.00,meteohub,2013-03-30 14:34:00,
2013-03-30 10:35:00,44.8,44.8,30.39,NE,45,5.0,5.0,0,0.00,,,0.00,meteohub,2013-03-30 14:35:00,
2013-03-30 10:38:00,44.8,44.8,30.39,North,0,6.0,6.0,0,0.00,,,0.00,meteohub,2013-03-30 14:38:00,
2013-03-30 10:39:00,44.8,44.8,30.39,North,0,5.0,5.0,0,0.00,,,0.00,meteohub,2013-03-30 14:39:00,
2013-03-30 10:41:00,44.8,44.8,30.39,NW,315,4.0,8.0,0,0.00,,,0.00,meteohub,2013-03-30 14:41:00,
2013-03-30 10:44:00,44.8,44.8,30.39,WSW,248,3.0,8.0,0,0.00,,,0.00,meteohub,2013-03-30 14:44:00,
2013-03-30 10:45:00,44.8,44.8,30.39,South,180,4.0,8.0,0,0.00,,,0.00,meteohub,2013-03-30 14:45:00,
2013-03-30 10:46:00,44.8,44.8,30.39,South,180,4.0,8.0,0,0.00,,,0.00,meteohub,2013-03-30 14:46:00,
2013-03-30 10:49:00,44.8,44.8,30.39,WSW,248,5.0,8.0,0,0.00,,,0.00,meteohub,2013-03-30 14:49:00,
2013-03-30 10:52:00,44.8,44.8,30.39,NW,315,2.0,8.0,0,0.00,,,0.00,meteohub,2013-03-30 14:52:00,
2013-03-30 10:55:00,46.2,46.2,30.39,NW,315,2.0,8.0,0,0.00,,,0.00,meteohub,2013-03-30 14:55:00,
2013-03-30 10:57:00,46.8,46.8,30.39,West,270,4.0,8.0,0,0.00,,,0.00,meteohub,2013-03-30 14:57:00,
2013-03-30 10:58:00,47.1,47.1,30.39,WSW,248,7.0,8.0,0,0.00,,,0.00,meteohub,2013-03-30 14:58:00,
2013-03-30 10:59:00,46.9,46.9,30.39,NW,315,6.0,8.0,0,0.00,,,0.00,meteohub,2013-03-30 14:59:00,
2013-03-30 11:00:00,46.6,46.6,30.39,North,0,5.0,8.0,0,0.00,,,0.00,meteohub,2013-03-30 15:00:00,
2013-03-30 11:02:00,45.7,45.7,30.39,West,270,4.0,8.0,0,0.00,,,0.00,meteohub,2013-03-30 15:02:00,
2013-03-30 11:04:00,45.5,45.5,30.39,NW,315,4.0,8.0,0,0.00,,,0.00,meteohub,2013-03-30 15:04:00,
2013-03-30 11:06:00,45.3,45.3,30.39,West,270,4.0,7.0,0,0.00,,,0.00,meteohub,2013-03-30 15:06:00,
2013-03-30 11:08:00,45.1,45.1,30.39,NE,45,3.0,7.0,0,0.00,,,0.00,meteohub,2013-03-30 15:08:00,
2013-03-30 11:10:00,45.1,45.1,30.39,NW,315,4.0,7.0,0,0.00,,,0.00,meteohub,2013-03-30 15:10:00,
2013-03-30 11:12:00,45.1,45.1,30.39,West,270,7.0,7.0,0,0.00,,,0.00,meteohub,2013-03-30 15:12:00,
2013-03-30 11:14:00,44.8,44.8,30.39,NW,315,3.0,7.0,0,0.00,,,0.00,meteohub,2013-03-30 15:14:00,
2013-03-30 11:15:00,44.8,44.8,30.38,NW,315,4.0,7.0,0,0.00,,,0.00,meteohub,2013-03-30 15:15:00,
2013-03-30 11:20:00,46.2,46.2,30.39,West,270,2.0,7.0,0,0.00,,,0.00,meteohub,2013-03-30 15:20:00,
2013-03-30 11:21:00,47.1,47.1,30.38,North,0,3.0,7.0,0,0.00,,,0.00,meteohub,2013-03-30 15:21:00,
2013-03-30 11:25:00,47.1,47.1,30.38,WSW,248,2.0,7.0,0,0.00,,,0.00,meteohub,2013-03-30 15:25:00,
2013-03-30 11:26:00,47.1,47.1,30.38,WSW,248,2.0,7.0,0,0.00,,,0.00,meteohub,2013-03-30 15:26:00,
2013-03-30 11:27:00,47.1,47.1,30.38,WSW,248,2.0,7.0,0,0.00,,,0.00,meteohub,2013-03-30 15:27:00,
2013-03-30 11:30:00,46.6,46.6,30.38,NE,45,2.0,6.0,0,0.00,,,0.00,meteohub,2013-03-30 15:30:00,
2013-03-30 11:31:00,46.6,46.6,30.38,NE,45,2.0,6.0,0,0.00,,,0.00,meteohub,2013-03-30 15:31:00,
2013-03-30 11:32:00,46.6,46.6,30.38,NE,45,2.0,6.0,0,0.00,,,0.00,meteohub,2013-03-30 15:32:00,
2013-03-30 11:37:00,46.9,46.9,30.38,West,270,3.0,9.0,0,0.00,,,0.00,meteohub,2013-03-30 15:37:00,
2013-03-30 11:38:00,46.9,46.9,30.38,NW,315,5.0,9.0,0,0.00,,,0.00,meteohub,2013-03-30 15:38:00,
2013-03-30 11:42:00,46.8,46.8,30.38,NW,315,4.0,9.0,0,0.00,,,0.00,meteohub,2013-03-30 15:42:00,
2013-03-30 11:43:00,46.8,46.8,30.38,NW,315,5.0,9.0,0,0.00,,,0.00,meteohub,2013-03-30 15:43:00,
2013-03-30 11:44:00,46.8,46.8,30.38,West,270,4.0,9.0,0,0.00,,,0.00,meteohub,2013-03-30 15:44:00,
2013-03-30 11:47:00,46.9,46.9,30.38,NW,315,4.0,9.0,0,0.00,,,0.00,meteohub,2013-03-30 15:47:00,
2013-03-30 11:49:00,46.9,46.9,30.38,NW,315,5.0,9.0,0,0.00,,,0.00,meteohub,2013-03-30 15:49:00,
2013-03-30 11:52:00,46.9,46.9,30.37,NE,45,5.0,5.0,0,0.00,,,0.00,meteohub,2013-03-30 15:52:00,
2013-03-30 11:53:00,46.9,46.9,30.37,NE,45,5.0,5.0,0,0.00,,,0.00,meteohub,2013-03-30 15:53:00,
2013-03-30 11:55:00,46.9,46.9,30.38,NE,45,5.0,5.0,0,0.00,,,0.00,meteohub,2013-03-30 15:55:00,
2013-03-30 11:58:00,48.2,48.2,30.38,WSW,248,4.0,5.0,0,0.00,,,0.00,meteohub,2013-03-30 15:58:00,
2013-03-30 12:00:00,47.8,47.8,30.38,West,270,5.0,6.0,0,0.00,,,0.00,meteohub,2013-03-30 16:00:00,
2013-03-30 12:02:00,47.8,47.8,30.38,NE,45,4.0,6.0,0,0.00,,,0.00,meteohub,2013-03-30 16:02:00,
2013-03-30 12:03:00,48.0,48.0,30.38,NW,315,5.0,6.0,0,0.00,,,0.00,meteohub,2013-03-30 16:03:00,
2013-03-30 12:04:00,47.8,47.8,30.38,North,0,6.0,6.0,0,0.00,,,0.00,meteohub,2013-03-30 16:04:00,
2013-03-30 12:05:00,47.7,47.7,30.38,SE,135,3.0,6.0,0,0.00,,,0.00,meteohub,2013-03-30 16:05:00,
2013-03-30 12:09:00,48.2,48.2,30.37,South,180,3.0,6.0,0,0.00,,,0.00,meteohub,2013-03-30 16:09:00,
2013-03-30 12:10:00,48.4,48.4,30.38,East,90,1.0,6.0,0,0.00,,,0.00,meteohub,2013-03-30 16:10:00,
2013-03-30 12:12:00,48.6,48.6,30.38,North,0,6.0,6.0,0,0.00,,,0.00,meteohub,2013-03-30 16:12:00,
2013-03-30 12:15:00,48.7,48.7,30.37,NW,315,7.0,7.0,0,0.00,,,0.00,meteohub,2013-03-30 16:15:00,
2013-03-30 12:16:00,48.7,48.7,30.37,West,270,7.0,7.0,0,0.00,,,0.00,meteohub,2013-03-30 16:16:00,
2013-03-30 12:18:00,48.6,48.6,30.37,WSW,248,4.0,6.0,0,0.00,,,0.00,meteohub,2013-03-30 16:18:00,
2013-03-30 12:20:00,49.1,49.1,30.37,South,180,3.0,7.0,0,0.00,,,0.00,meteohub,2013-03-30 16:20:00,
2013-03-30 12:21:00,49.5,49.5,30.36,South,180,4.0,7.0,0,0.00,,,0.00,meteohub,2013-03-30 16:21:00,
2013-03-30 12:23:00,49.5,49.5,30.37,NW,315,2.0,7.0,0,0.00,,,0.00,meteohub,2013-03-30 16:23:00,
2013-03-30 12:26:00,50.0,50.0,30.36,WSW,248,2.0,7.0,0,0.00,,,0.00,meteohub,2013-03-30 16:26:00,
2013-03-30 12:27:00,50.4,50.4,30.37,West,270,4.0,7.0,0,0.00,,,0.00,meteohub,2013-03-30 16:27:00,
2013-03-30 12:28:00,50.5,50.5,30.37,South,180,2.0,7.0,0,0.00,,,0.00,meteohub,2013-03-30 16:28:00,
2013-03-30 12:29:00,50.5,50.5,30.37,South,180,2.0,7.0,0,0.00,,,0.00,meteohub,2013-03-30 16:29:00,
2013-03-30 12:32:00,49.8,49.8,30.37,SE,135,6.0,7.0,0,0.00,,,0.00,meteohub,2013-03-30 16:32:00,
2013-03-30 12:33:00,49.6,49.6,30.37,West,270,8.0,8.0,0,0.00,,,0.00,meteohub,2013-03-30 16:33:00,
2013-03-30 12:34:00,49.5,49.5,30.37,South,180,8.0,8.0,0,0.00,,,0.00,meteohub,2013-03-30 16:34:00,
2013-03-30 12:37:00,48.0,48.0,30.36,WSW,248,4.0,8.0,0,0.00,,,0.00,meteohub,2013-03-30 16:37:00,
2013-03-30 12:38:00,48.0,48.0,30.36,North,0,6.0,8.0,0,0.00,,,0.00,meteohub,2013-03-30 16:38:00,
2013-03-30 12:40:00,47.8,47.8,30.36,WSW,248,5.0,8.0,0,0.00,,,0.00,meteohub,2013-03-30 16:40:00,
2013-03-30 12:43:00,47.7,47.7,30.36,SE,135,5.0,8.0,0,0.00,,,0.00,meteohub,2013-03-30 16:43:00,
2013-03-30 12:45:00,47.8,47.8,30.36,WSW,248,3.0,8.0,0,0.00,,,0.00,meteohub,2013-03-30 16:45:00,
2013-03-30 12:48:00,47.8,47.8,30.36,West,270,4.0,8.0,0,0.00,,,0.00,meteohub,2013-03-30 16:48:00,
2013-03-30 12:49:00,47.8,47.8,30.36,NW,315,7.0,8.0,0,0.00,,,0.00,meteohub,2013-03-30 16:49:00,
2013-03-30 12:50:00,47.8,47.8,30.36,South,180,4.0,8.0,0,0.00,,,0.00,meteohub,2013-03-30 16:50:00,
2013-03-30 12:53:00,47.7,47.7,30.36,NW,315,8.0,8.0,0,0.00,,,0.00,meteohub,2013-03-30 16:53:00,
2013-03-30 12:54:00,47.7,47.7,30.36,NW,315,8.0,8.0,0,0.00,,,0.00,meteohub,2013-03-30 16:54:00,
2013-03-30 12:55:00,47.3,47.3,30.36,South,180,4.0,8.0,0,0.00,,,0.00,meteohub,2013-03-30 16:55:00,
2013-03-30 12:59:00,47.5,47.5,30.36,WSW,248,4.0,8.0,0,0.00,,,0.00,meteohub,2013-03-30 16:59:00,
2013-03-30 13:00:00,47.5,47.5,30.36,WSW,248,5.0,8.0,0,0.00,,,0.00,meteohub,2013-03-30 17:00:00,
2013-03-30 13:01:00,47.5,47.5,30.36,WSW,248,5.0,8.0,0,0.00,,,0.00,meteohub,2013-03-30 17:01:00,
2013-03-30 13:04:00,47.5,47.5,30.35,WSW,248,5.0,8.0,0,0.00,,,0.00,meteohub,2013-03-30 17:04:00,
2013-03-30 13:06:00,47.5,47.5,30.35,WSW,248,5.0,8.0,0,0.00,,,0.00,meteohub,2013-03-30 17:06:00,
2013-03-30 13:09:00,48.0,48.0,30.35,NE,45,2.0,8.0,0,0.00,,,0.00,meteohub,2013-03-30 17:09:00,
2013-03-30 13:12:00,49.1,49.1,30.35,NW,315,4.0,8.0,0,0.00,,,0.00,meteohub,2013-03-30 17:12:00,
2013-03-30 13:14:00,49.1,49.1,30.35,WSW,248,7.0,8.0,0,0.00,,,0.00,meteohub,2013-03-30 17:14:00,
2013-03-30 13:15:00,49.1,49.1,30.35,NW,315,4.0,8.0,0,0.00,,,0.00,meteohub,2013-03-30 17:15:00,
2013-03-30 13:16:00,49.1,49.1,30.35,North,0,3.0,7.0,0,0.00,,,0.00,meteohub,2013-03-30 17:16:00,
2013-03-30 13:17:00,49.1,49.1,30.35,North,0,3.0,7.0,0,0.00,,,0.00,meteohub,2013-03-30 17:17:00,
2013-03-30 13:20:00,49.8,49.8,30.35,WSW,248,6.0,8.0,0,0.00,,,0.00,meteohub,2013-03-30 17:20:00,
2013-03-30 13:21:00,49.8,49.8,30.35,South,180,2.0,8.0,0,0.00,,,0.00,meteohub,2013-03-30 17:21:00,
2013-03-30 13:22:00,50.0,50.0,30.35,North,0,2.0,8.0,0,0.00,,,0.00,meteohub,2013-03-30 17:22:00,
2013-03-30 13:26:00,49.1,49.1,30.35,WSW,248,3.0,9.0,0,0.00,,,0.00,meteohub,2013-03-30 17:26:00,
2013-03-30 13:27:00,49.1,49.1,30.35,West,270,6.0,9.0,0,0.00,,,0.00,meteohub,2013-03-30 17:27:00,
2013-03-30 13:28:00,48.6,48.6,30.35,NW,315,4.0,9.0,0,0.00,,,0.00,meteohub,2013-03-30 17:28:00,
2013-03-30 13:31:00,48.6,48.6,30.35,NE,45,2.0,9.0,0,0.00,,,0.00,meteohub,2013-03-30 17:31:00,
2013-03-30 13:32:00,48.9,48.9,30.35,WSW,248,3.0,9.0,0,0.00,,,0.00,meteohub,2013-03-30 17:32:00,
2013-03-30 13:33:00,49.5,49.5,30.35,South,180,3.0,9.0,0,0.00,,,0.00,meteohub,2013-03-30 17:33:00,
2013-03-30 13:37:00,49.5,49.5,30.35,NE,45,6.0,9.0,0,0.00,,,0.00,meteohub,2013-03-30 17:37:00,
2013-03-30 13:38:00,49.5,49.5,30.35,NE,45,6.0,9.0,0,0.00,,,0.00,meteohub,2013-03-30 17:38:00,
2013-03-30 13:39:00,49.3,49.3,30.35,NW,315,5.0,9.0,0,0.00,,,0.00,meteohub,2013-03-30 17:39:00,
2013-03-30 13:42:00,50.0,50.0,30.35,WSW,248,2.0,7.0,0,0.00,,,0.00,meteohub,2013-03-30 17:42:00,
2013-03-30 13:43:00,50.2,50.2,30.34,WSW,248,3.0,7.0,0,0.00,,,0.00,meteohub,2013-03-30 17:43:00,
2013-03-30 13:44:00,50.4,50.4,30.34,NE,45,2.0,7.0,0,0.00,,,0.00,meteohub,2013-03-30 17:44:00,
2013-03-30 13:48:00,49.5,49.5,30.33,NE,45,5.0,9.0,0,0.00,,,0.00,meteohub,2013-03-30 17:48:00,
2013-03-30 13:49:00,49.5,49.5,30.34,North,0,7.0,9.0,0,0.00,,,0.00,meteohub,2013-03-30 17:49:00,
2013-03-30 13:50:00,49.5,49.5,30.34,North,0,7.0,9.0,0,0.00,,,0.00,meteohub,2013-03-30 17:50:00,
2013-03-30 13:53:00,49.6,49.6,30.33,NE,45,6.0,9.0,0,0.00,,,0.00,meteohub,2013-03-30 17:53:00,
2013-03-30 13:54:00,50.0,50.0,30.33,NW,315,8.0,9.0,0,0.00,,,0.00,meteohub,2013-03-30 17:54:00,
2013-03-30 13:57:00,50.0,50.0,30.33,North,0,5.0,9.0,0,0.00,,,0.00,meteohub,2013-03-30 17:57:00,
2013-03-30 13:58:00,50.7,50.7,30.33,SE,135,2.0,9.0,0,0.00,,,0.00,meteohub,2013-03-30 17:58:00,
2013-03-30 14:00:00,51.3,51.3,30.34,West,270,2.0,9.0,0,0.00,,,0.00,meteohub,2013-03-30 18:00:00,
2013-03-30 14:02:00,51.8,51.8,30.33,West,270,3.0,9.0,0,0.00,,,0.00,meteohub,2013-03-30 18:02:00,
2013-03-30 14:04:00,52.0,52.0,30.33,NW,315,5.0,9.0,0,0.00,,,0.00,meteohub,2013-03-30 18:04:00,
2013-03-30 14:07:00,51.6,51.6,30.33,West,270,6.0,8.0,0,0.00,,,0.00,meteohub,2013-03-30 18:07:00,
2013-03-30 14:08:00,51.3,51.3,30.33,NE,45,3.0,8.0,0,0.00,,,0.00,meteohub,2013-03-30 18:08:00,
2013-03-30 14:09:00,51.4,51.4,30.33,NW,315,6.0,8.0,0,0.00,,,0.00,meteohub,2013-03-30 18:09:00,
2013-03-30 14:10:00,51.4,51.4,30.33,NW,315,4.0,8.0,0,0.00,,,0.00,meteohub,2013-03-30 18:10:00,
2013-03-30 14:12:00,50.9,50.9,30.33,North,0,4.0,6.0,0,0.00,,,0.00,meteohub,2013-03-30 18:12:00,
2013-03-30 14:14:00,50.9,50.9,30.33,North,0,2.0,6.0,0,0.00,,,0.00,meteohub,2013-03-30 18:14:00,
2013-03-30 14:16:00,51.4,51.4,30.33,East,90,4.0,7.0,0,0.00,,,0.00,meteohub,2013-03-30 18:16:00,
2013-03-30 14:18:00,51.6,51.6,30.33,West,270,2.0,7.0,0,0.00,,,0.00,meteohub,2013-03-30 18:18:00,
2013-03-30 14:19:00,51.8,51.8,30.33,WSW,248,3.0,7.0,0,0.00,,,0.00,meteohub,2013-03-30 18:19:00,
2013-03-30 14:20:00,52.0,52.0,30.33,WSW,248,3.0,7.0,0,0.00,,,0.00,meteohub,2013-03-30 18:20:00,
2013-03-30 14:21:00,52.0,52.0,30.33,South,180,4.0,7.0,0,0.00,,,0.00,meteohub,2013-03-30 18:21:00,
2013-03-30 14:23:00,51.8,51.8,30.33,WSW,248,5.0,7.0,0,0.00,,,0.00,meteohub,2013-03-30 18:23:00,
2013-03-30 14:24:00,51.4,51.4,30.33,South,180,6.0,7.0,0,0.00,,,0.00,meteohub,2013-03-30 18:24:00,
2013-03-30 14:26:00,51.3,51.3,30.33,West,270,5.0,7.0,0,0.00,,,0.00,meteohub,2013-03-30 18:26:00,
2013-03-30 14:27:00,50.9,50.9,30.33,West,270,2.0,7.0,0,0.00,,,0.00,meteohub,2013-03-30 18:27:00,
2013-03-30 14:28:00,50.9,50.9,30.33,WSW,248,3.0,7.0,0,0.00,,,0.00,meteohub,2013-03-30 18:28:00,
2013-03-30 14:31:00,51.1,51.1,30.32,WSW,248,4.0,6.0,0,0.00,,,0.00,meteohub,2013-03-30 18:31:00,
2013-03-30 14:32:00,50.7,50.7,30.32,NW,315,4.0,6.0,0,0.00,,,0.00,meteohub,2013-03-30 18:32:00,
2013-03-30 14:33:00,50.5,50.5,30.32,West,270,6.0,6.0,0,0.00,,,0.00,meteohub,2013-03-30 18:33:00,
2013-03-30 14:37:00,50.5,50.5,30.32,South,180,4.0,6.0,0,0.00,,,0.00,meteohub,2013-03-30 18:37:00,
2013-03-30 14:38:00,50.5,50.5,30.32,SE,135,4.0,6.0,0,0.00,,,0.00,meteohub,2013-03-30 18:38:00,
2013-03-30 14:39:00,50.7,50.7,30.32,WSW,248,2.0,6.0,0,0.00,,,0.00,meteohub,2013-03-30 18:39:00,
2013-03-30 14:42:00,50.9,50.9,30.32,West,270,5.0,6.0,0,0.00,,,0.00,meteohub,2013-03-30 18:42:00,
2013-03-30 14:43:00,50.7,50.7,30.32,NE,45,2.0,6.0,0,0.00,,,0.00,meteohub,2013-03-30 18:43:00,
2013-03-30 14:44:00,51.1,51.1,30.32,South,180,2.0,6.0,0,0.00,,,0.00,meteohub,2013-03-30 18:44:00,
2013-03-30 14:48:00,52.0,52.0,30.32,East,90,6.0,6.0,0,0.00,,,0.00,meteohub,2013-03-30 18:48:00,
2013-03-30 14:49:00,51.8,51.8,30.32,NE,45,6.0,6.0,0,0.00,,,0.00,meteohub,2013-03-30 18:49:00,
2013-03-30 14:50:00,51.6,51.6,30.32,NE,45,5.0,6.0,0,0.00,,,0.00,meteohub,2013-03-30 18:50:00,
2013-03-30 14:53:00,51.6,51.6,30.32,NW,315,9.0,9.0,0,0.00,,,0.00,meteohub,2013-03-30 18:53:00,
2013-03-30 14:54:00,51.4,51.4,30.32,NW,315,6.0,6.0,0,0.00,,,0.00,meteohub,2013-03-30 18:54:00,
2013-03-30 14:55:00,51.3,51.3,30.32,NW,315,4.0,9.0,0,0.00,,,0.00,meteohub,2013-03-30 18:55:00,
2013-03-30 14:56:00,51.1,51.1,30.32,NW,315,7.0,9.0,0,0.00,,,0.00,meteohub,2013-03-30 18:56:00,
2013-03-30 14:59:00,50.9,50.9,30.32,NW,315,6.0,9.0,0,0.00,,,0.00,meteohub,2013-03-30 18:59:00,
2013-03-30 15:00:00,50.9,50.9,30.32,North,0,9.0,9.0,0,0.00,,,0.00,meteohub,2013-03-30 19:00:00,
2013-03-30 15:01:00,50.9,50.9,30.32,NW,315,8.0,9.0,0,0.00,,,0.00,meteohub,2013-03-30 19:01:00,
2013-03-30 15:04:00,51.8,51.8,30.32,East,90,3.0,9.0,0,0.00,,,0.00,meteohub,2013-03-30 19:04:00,
2013-03-30 15:05:00,51.8,51.8,30.32,East,90,3.0,9.0,0,0.00,,,0.00,meteohub,2013-03-30 19:05:00,
2013-03-30 15:06:00,51.8,51.8,30.32,SE,135,6.0,9.0,0,0.00,,,0.00,meteohub,2013-03-30 19:06:00,
2013-03-30 15:07:00,51.8,51.8,30.32,NE,45,2.0,9.0,0,0.00,,,0.00,meteohub,2013-03-30 19:07:00,
2013-03-30 15:10:00,52.3,52.3,30.31,WSW,248,4.0,9.0,0,0.00,,,0.00,meteohub,2013-03-30 19:10:00,
2013-03-30 15:11:00,52.3,52.3,30.32,North,0,4.0,9.0,0,0.00,,,0.00,meteohub,2013-03-30 19:11:00,
2013-03-30 15:12:00,52.3,52.3,30.32,South,180,2.0,9.0,0,0.00,,,0.00,meteohub,2013-03-30 19:12:00,
2013-03-30 15:15:00,52.7,52.7,30.32,WSW,248,6.0,8.0,0,0.00,,,0.00,meteohub,2013-03-30 19:15:00,
2013-03-30 15:17:00,52.3,52.3,30.32,WSW,248,3.0,8.0,0,0.00,,,0.00,meteohub,2013-03-30 19:17:00,
2013-03-30 15:18:00,52.5,52.5,30.32,South,180,4.0,8.0,0,0.00,,,0.00,meteohub,2013-03-30 19:18:00,
2013-03-30 15:20:00,52.7,52.7,30.32,NW,315,5.0,7.0,0,0.00,,,0.00,meteohub,2013-03-30 19:20:00,
2013-03-30 15:23:00,52.9,52.9,30.32,North,0,3.0,7.0,0,0.00,,,0.00,meteohub,2013-03-30 19:23:00,
2013-03-30 15:24:00,52.9,52.9,30.32,West,270,2.0,7.0,0,0.00,,,0.00,meteohub,2013-03-30 19:24:00,
2013-03-30 15:26:00,53.4,53.4,30.32,WSW,248,4.0,6.0,0,0.00,,,0.00,meteohub,2013-03-30 19:26:00,
2013-03-30 15:28:00,53.4,53.4,30.32,West,270,4.0,6.0,0,0.00,,,0.00,meteohub,2013-03-30 19:28:00,
2013-03-30 15:29:00,53.4,53.4,30.32,South,180,4.0,6.0,0,0.00,,,0.00,meteohub,2013-03-30 19:29:00,
2013-03-30 15:32:00,53.4,53.4,30.31,South,180,5.0,6.0,0,0.00,,,0.00,meteohub,2013-03-30 19:32:00,
2013-03-30 15:34:00,53.6,53.6,30.32,WSW,248,3.0,6.0,0,0.00,,,0.00,meteohub,2013-03-30 19:34:00,
2013-03-30 15:35:00,53.6,53.6,30.32,WSW,248,3.0,6.0,0,0.00,,,0.00,meteohub,2013-03-30 19:35:00,
2013-03-30 15:36:00,53.8,53.8,30.31,WSW,248,8.0,8.0,0,0.00,,,0.00,meteohub,2013-03-30 19:36:00,
2013-03-30 15:38:00,53.6,53.6,30.31,WSW,248,5.0,6.0,0,0.00,,,0.00,meteohub,2013-03-30 19:38:00,
2013-03-30 15:39:00,53.2,53.2,30.31,West,270,8.0,8.0,0,0.00,,,0.00,meteohub,2013-03-30 19:39:00,
2013-03-30 15:40:00,53.2,53.2,30.31,West,270,8.0,8.0,0,0.00,,,0.00,meteohub,2013-03-30 19:40:00,
2013-03-30 15:42:00,52.7,52.7,30.31,WSW,248,7.0,8.0,0,0.00,,,0.00,meteohub,2013-03-30 19:42:00,
2013-03-30 15:44:00,52.5,52.5,30.31,WSW,248,4.0,8.0,0,0.00,,,0.00,meteohub,2013-03-30 19:44:00,
2013-03-30 15:45:00,52.5,52.5,30.31,East,90,2.0,8.0,0,0.00,,,0.00,meteohub,2013-03-30 19:45:00,
2013-03-30 15:48:00,53.6,53.6,30.32,WSW,248,3.0,8.0,0,0.00,,,0.00,meteohub,2013-03-30 19:48:00,
2013-03-30 15:49:00,54.0,54.0,30.31,WSW,248,6.0,8.0,0,0.00,,,0.00,meteohub,2013-03-30 19:49:00,
2013-03-30 15:50:00,53.8,53.8,30.31,NW,315,6.0,8.0,0,0.00,,,0.00,meteohub,2013-03-30 19:50:00,
2013-03-30 15:51:00,53.4,53.4,30.31,NW,315,4.0,8.0,0,0.00,,,0.00,meteohub,2013-03-30 19:51:00,
2013-03-30 15:53:00,53.1,53.1,30.31,WSW,248,4.0,8.0,0,0.00,,,0.00,meteohub,2013-03-30 19:53:00,
2013-03-30 15:54:00,52.9,52.9,30.31,North,0,5.0,8.0,0,0.00,,,0.00,meteohub,2013-03-30 19:54:00,
2013-03-30 15:55:00,52.9,52.9,30.31,WSW,248,2.0,8.0,0,0.00,,,0.00,meteohub,2013-03-30 19:55:00,
2013-03-30 15:57:00,53.2,53.2,30.31,WSW,248,6.0,8.0,0,0.00,,,0.00,meteohub,2013-03-30 19:57:00,
2013-03-30 16:21:00,53.1,53.1,30.30,WSW,248,5.0,10.0,0,0.00,,,0.00,meteohub,2013-03-30 20:21:00,
2013-03-30 16:22:00,53.1,53.1,30.30,WSW,248,5.0,10.0,0,0.00,,,0.00,meteohub,2013-03-30 20:22:00,
2013-03-30 16:26:00,53.8,53.8,30.30,NW,315,3.0,10.0,0,0.00,,,0.00,meteohub,2013-03-30 20:26:00,
2013-03-30 16:27:00,53.8,53.8,30.30,NW,315,3.0,10.0,0,0.00,,,0.00,meteohub,2013-03-30 20:27:00,
2013-03-30 16:28:00,54.0,54.0,30.30,NW,315,4.0,10.0,0,0.00,,,0.00,meteohub,2013-03-30 20:28:00,
2013-03-30 16:32:00,54.5,54.5,30.30,SE,135,4.0,10.0,0,0.00,,,0.00,meteohub,2013-03-30 20:32:00,
2013-03-30 16:33:00,54.9,54.9,30.30,North,0,4.0,10.0,0,0.00,,,0.00,meteohub,2013-03-30 20:33:00,
2013-03-30 16:34:00,54.9,54.9,30.30,East,90,4.0,10.0,0,0.00,,,0.00,meteohub,2013-03-30 20:34:00,
2013-03-30 16:37:00,55.0,55.0,30.30,West,270,5.0,5.0,0,0.00,,,0.00,meteohub,2013-03-30 20:37:00,
2013-03-30 16:39:00,55.2,55.2,30.30,WSW,248,4.0,5.0,0,0.00,,,0.00,meteohub,2013-03-30 20:39:00,
2013-03-30 16:40:00,54.9,54.9,30.29,West,270,5.0,5.0,0,0.00,,,0.00,meteohub,2013-03-30 20:40:00,
2013-03-30 16:42:00,54.3,54.3,30.30,South,180,6.0,6.0,0,0.00,,,0.00,meteohub,2013-03-30 20:42:00,
2013-03-30 16:44:00,54.0,54.0,30.30,East,90,5.0,5.0,0,0.00,,,0.00,meteohub,2013-03-30 20:44:00,
2013-03-30 16:45:00,53.8,53.8,30.30,South,180,4.0,5.0,0,0.00,,,0.00,meteohub,2013-03-30 20:45:00,
2013-03-30 16:48:00,53.2,53.2,30.29,NW,315,9.0,9.0,0,0.00,,,0.00,meteohub,2013-03-30 20:48:00,
2013-03-30 16:50:00,52.9,52.9,30.29,West,270,7.0,7.0,0,0.00,,,0.00,meteohub,2013-03-30 20:50:00,
2013-03-30 16:53:00,52.7,52.7,30.30,NE,45,3.0,11.0,0,0.00,,,0.00,meteohub,2013-03-30 20:53:00,
2013-03-30 16:55:00,53.4,53.4,30.30,NE,45,2.0,11.0,0,0.00,,,0.00,meteohub,2013-03-30 20:55:00,
2013-03-30 16:56:00,53.8,53.8,30.30,SE,135,2.0,11.0,0,0.00,,,0.00,meteohub,2013-03-30 20:56:00,
2013-03-30 16:59:00,55.4,55.4,30.30,West,270,2.0,11.0,0,0.00,,,0.00,meteohub,2013-03-30 20:59:00,
2013-03-30 17:00:00,55.6,55.6,30.30,West,270,3.0,11.0,0,0.00,,,0.00,meteohub,2013-03-30 21:00:00,
2013-03-30 17:02:00,55.8,55.8,30.29,West,270,3.0,11.0,0,0.00,,,0.00,meteohub,2013-03-30 21:02:00,
2013-03-30 17:03:00,55.8,55.8,30.29,WSW,248,3.0,11.0,0,0.00,,,0.00,meteohub,2013-03-30 21:03:00,
2013-03-30 17:04:00,55.8,55.8,30.29,WSW,248,4.0,11.0,0,0.00,,,0.00,meteohub,2013-03-30 21:04:00,
2013-03-30 17:06:00,55.2,55.2,30.29,West,270,6.0,6.0,0,0.00,,,0.00,meteohub,2013-03-30 21:06:00,
2013-03-30 17:07:00,54.9,54.9,30.29,WSW,248,6.0,6.0,0,0.00,,,0.00,meteohub,2013-03-30 21:07:00,
2013-03-30 17:08:00,54.7,54.7,30.29,WSW,248,3.0,5.0,0,0.00,,,0.00,meteohub,2013-03-30 21:08:00,
2013-03-30 17:09:00,54.5,54.5,30.29,East,90,4.0,5.0,0,0.00,,,0.00,meteohub,2013-03-30 21:09:00,
2013-03-30 17:12:00,54.5,54.5,30.29,WSW,248,5.0,8.0,0,0.00,,,0.00,meteohub,2013-03-30 21:12:00,
2013-03-30 17:13:00,54.3,54.3,30.29,WSW,248,5.0,8.0,0,0.00,,,0.00,meteohub,2013-03-30 21:13:00,
2013-03-30 17:15:00,54.1,54.1,30.29,West,270,8.0,8.0,0,0.00,,,0.00,meteohub,2013-03-30 21:15:00,
2013-03-30 17:18:00,53.8,53.8,30.28,South,180,4.0,8.0,0,0.00,,,0.00,meteohub,2013-03-30 21:18:00,
2013-03-30 17:20:00,54.3,54.3,30.29,South,180,3.0,8.0,0,0.00,,,0.00,meteohub,2013-03-30 21:20:00,
2013-03-30 17:21:00,54.7,54.7,30.29,SSE,158,3.0,8.0,0,0.00,,,0.00,meteohub,2013-03-30 21:21:00,
2013-03-30 17:24:00,55.8,55.8,30.29,WSW,248,2.0,8.0,0,0.00,,,0.00,meteohub,2013-03-30 21:24:00,
2013-03-30 17:25:00,55.9,55.9,30.29,WSW,248,3.0,8.0,0,0.00,,,0.00,meteohub,2013-03-30 21:25:00,
2013-03-30 17:26:00,55.8,55.8,30.29,WSW,248,7.0,8.0,0,0.00,,,0.00,meteohub,2013-03-30 21:26:00,
2013-03-30 17:29:00,54.3,54.3,30.29,WSW,248,5.0,8.0,0,0.00,,,0.00,meteohub,2013-03-30 21:29:00,
2013-03-30 17:30:00,54.1,54.1,30.29,South,180,5.0,8.0,0,0.00,,,0.00,meteohub,2013-03-30 21:30:00,
2013-03-30 17:31:00,54.1,54.1,30.29,South,180,5.0,7.0,0,0.00,,,0.00,meteohub,2013-03-30 21:31:00,
2013-03-30 17:32:00,54.0,54.0,30.29,NE,45,2.0,7.0,0,0.00,,,0.00,meteohub,2013-03-30 21:32:00,
2013-03-30 17:35:00,54.7,54.7,30.28,South,180,1.0,7.0,0,0.00,,,0.00,meteohub,2013-03-30 21:35:00,
2013-03-30 17:36:00,55.0,55.0,30.28,South,180,3.0,7.0,0,0.00,,,0.00,meteohub,2013-03-30 21:36:00,
2013-03-30 17:38:00,55.6,55.6,30.28,SSW,203,4.0,7.0,0,0.00,,,0.00,meteohub,2013-03-30 21:38:00,
2013-03-30 17:41:00,55.4,55.4,30.28,West,270,2.0,8.0,0,0.00,,,0.00,meteohub,2013-03-30 21:41:00,
2013-03-30 17:42:00,55.4,55.4,30.28,West,270,2.0,8.0,0,0.00,,,0.00,meteohub,2013-03-30 21:42:00,
2013-03-30 17:44:00,55.6,55.6,30.28,WSW,248,4.0,8.0,0,0.00,,,0.00,meteohub,2013-03-30 21:44:00,
2013-03-30 17:47:00,55.0,55.0,30.28,SE,135,4.0,8.0,0,0.00,,,0.00,meteohub,2013-03-30 21:47:00,
2013-03-30 17:48:00,54.5,54.5,30.28,South,180,4.0,8.0,0,0.00,,,0.00,meteohub,2013-03-30 21:48:00,
2013-03-30 17:49:00,54.3,54.3,30.27,WSW,248,2.0,8.0,0,0.00,,,0.00,meteohub,2013-03-30 21:49:00,
2013-03-30 17:52:00,54.1,54.1,30.27,NW,315,3.0,8.0,0,0.00,,,0.00,meteohub,2013-03-30 21:52:00,
2013-03-30 17:53:00,54.1,54.1,30.27,NW,315,3.0,8.0,0,0.00,,,0.00,meteohub,2013-03-30 21:53:00,
2013-03-30 17:54:00,54.0,54.0,30.28,West,270,2.0,8.0,0,0.00,,,0.00,meteohub,2013-03-30 21:54:00,
2013-03-30 17:57:00,53.8,53.8,30.27,South,180,1.0,7.0,0,0.00,,,0.00,meteohub,2013-03-30 21:57:00,
2013-03-30 17:59:00,54.0,54.0,30.27,South,180,2.0,7.0,0,0.00,,,0.00,meteohub,2013-03-30 21:59:00,
2013-03-30 18:00:00,54.1,54.1,30.28,West,270,3.0,7.0,0,0.00,,,0.00,meteohub,2013-03-30 22:00:00,
2013-03-30 18:03:00,54.0,54.0,30.28,NW,315,3.0,6.0,0,0.00,,,0.00,meteohub,2013-03-30 22:03:00,
2013-03-30 18:04:00,53.8,53.8,30.28,West,270,2.0,6.0,0,0.00,,,0.00,meteohub,2013-03-30 22:04:00,
2013-03-30 18:05:00,54.0,54.0,30.28,WSW,248,1.0,5.0,0,0.00,,,0.00,meteohub,2013-03-30 22:05:00,
2013-03-30 18:06:00,54.0,54.0,30.28,WSW,248,1.0,5.0,0,0.00,,,0.00,meteohub,2013-03-30 22:06:00,
2013-03-30 18:08:00,54.5,54.5,30.27,South,180,1.0,5.0,0,0.00,,,0.00,meteohub,2013-03-30 22:08:00,
2013-03-30 18:09:00,54.7,54.7,30.27,WSW,248,2.0,5.0,0,0.00,,,0.00,meteohub,2013-03-30 22:09:00,
2013-03-30 18:12:00,54.5,54.5,30.27,South,180,3.0,5.0,0,0.00,,,0.00,meteohub,2013-03-30 22:12:00,
2013-03-30 18:15:00,53.8,53.8,30.27,SE,135,1.0,5.0,0,0.00,,,0.00,meteohub,2013-03-30 22:15:00,
2013-03-30 18:18:00,53.4,53.4,30.28,SE,135,3.0,5.0,0,0.00,,,0.00,meteohub,2013-03-30 22:18:00,
2013-03-30 18:19:00,53.4,53.4,30.28,SE,135,3.0,5.0,0,0.00,,,0.00,meteohub,2013-03-30 22:19:00,
2013-03-30 18:20:00,53.1,53.1,30.27,South,180,4.0,5.0,0,0.00,,,0.00,meteohub,2013-03-30 22:20:00,
2013-03-30 18:22:00,52.7,52.7,30.28,WSW,248,5.0,5.0,0,0.00,,,0.00,meteohub,2013-03-30 22:22:00,
2013-03-30 18:24:00,52.3,52.3,30.28,WSW,248,4.0,4.0,0,0.00,,,0.00,meteohub,2013-03-30 22:24:00,
2013-03-30 18:27:00,51.6,51.6,30.28,WSW,248,2.0,5.0,0,0.00,,,0.00,meteohub,2013-03-30 22:27:00,
2013-03-30 18:29:00,51.6,51.6,30.28,South,180,2.0,5.0,0,0.00,,,0.00,meteohub,2013-03-30 22:29:00,
2013-03-30 18:30:00,51.6,51.6,30.28,East,90,2.0,5.0,0,0.00,,,0.00,meteohub,2013-03-30 22:30:00,
2013-03-30 18:33:00,51.4,51.4,30.28,WSW,248,2.0,6.0,0,0.00,,,0.00,meteohub,2013-03-30 22:33:00,
2013-03-30 18:34:00,51.4,51.4,30.28,South,180,1.0,6.0,0,0.00,,,0.00,meteohub,2013-03-30 22:34:00,
2013-03-30 18:35:00,51.4,51.4,30.28,West,270,2.0,6.0,0,0.00,,,0.00,meteohub,2013-03-30 22:35:00,
2013-03-30 18:38:00,51.1,51.1,30.28,South,180,3.0,6.0,0,0.00,,,0.00,meteohub,2013-03-30 22:38:00,
2013-03-30 18:40:00,50.9,50.9,30.28,South,180,2.0,6.0,0,0.00,,,0.00,meteohub,2013-03-30 22:40:00,
2013-03-30 18:42:00,50.4,50.4,30.28,WSW,248,4.0,4.0,0,0.00,,,0.00,meteohub,2013-03-30 22:42:00,
2013-03-30 18:44:00,50.0,50.0,30.28,West,270,4.0,4.0,0,0.00,,,0.00,meteohub,2013-03-30 22:44:00,
2013-03-30 18:45:00,49.6,49.6,30.28,WSW,248,7.0,7.0,0,0.00,,,0.00,meteohub,2013-03-30 22:45:00,
2013-03-30 18:47:00,49.6,49.6,30.28,WSW,248,7.0,7.0,0,0.00,,,0.00,meteohub,2013-03-30 22:47:00,
2013-03-30 18:50:00,49.1,49.1,30.28,West,270,5.0,5.0,0,0.00,,,0.00,meteohub,2013-03-30 22:50:00,
2013-03-30 18:51:00,48.9,48.9,30.28,WSW,248,4.0,7.0,0,0.00,,,0.00,meteohub,2013-03-30 22:51:00,
2013-03-30 18:53:00,48.9,48.9,30.28,WSW,248,2.0,7.0,0,0.00,,,0.00,meteohub,2013-03-30 22:53:00,
2013-03-30 18:55:00,48.9,48.9,30.28,South,180,1.0,7.0,0,0.00,,,0.00,meteohub,2013-03-30 22:55:00,
2013-03-30 18:56:00,48.9,48.9,30.28,WSW,248,1.0,7.0,0,0.00,,,0.00,meteohub,2013-03-30 22:56:00,
2013-03-30 18:57:00,48.7,48.7,30.28,WSW,248,1.0,7.0,0,0.00,,,0.00,meteohub,2013-03-30 22:57:00,
2013-03-30 18:59:00,48.6,48.6,30.28,WSW,248,3.0,7.0,0,0.00,,,0.00,meteohub,2013-03-30 22:59:00,
2013-03-30 19:01:00,48.4,48.4,30.28,South,180,4.0,7.0,0,0.00,,,0.00,meteohub,2013-03-30 23:01:00,
2013-03-30 19:03:00,48.2,48.2,30.28,SE,135,1.0,7.0,0,0.00,,,0.00,meteohub,2013-03-30 23:03:00,
2013-03-30 19:04:00,48.2,48.2,30.28,South,180,1.0,7.0,0,0.00,,,0.00,meteohub,2013-03-30 23:04:00,
2013-03-30 19:06:00,48.0,48.0,30.28,South,180,1.0,5.0,0,0.00,,,0.00,meteohub,2013-03-30 23:06:00,
2013-03-30 19:08:00,47.8,47.8,30.28,WSW,248,0.0,5.0,0,0.00,,,0.00,meteohub,2013-03-30 23:08:00,
2013-03-30 19:10:00,47.5,47.5,30.28,WSW,248,0.0,5.0,0,0.00,,,0.00,meteohub,2013-03-30 23:10:00,
2013-03-30 19:11:00,47.5,47.5,30.28,NW,315,2.0,4.0,0,0.00,,,0.00,meteohub,2013-03-30 23:11:00,
2013-03-30 19:12:00,47.5,47.5,30.28,NW,315,2.0,4.0,0,0.00,,,0.00,meteohub,2013-03-30 23:12:00,
2013-03-30 19:14:00,47.1,47.1,30.28,WSW,248,0.0,4.0,0,0.00,,,0.00,meteohub,2013-03-30 23:14:00,
2013-03-30 19:16:00,46.9,46.9,30.28,WSW,248,0.0,4.0,0,0.00,,,0.00,meteohub,2013-03-30 23:16:00,
2013-03-30 19:17:00,46.9,46.9,30.28,SE,135,0.0,4.0,0,0.00,,,0.00,meteohub,2013-03-30 23:17:00,
2013-03-30 19:18:00,46.6,46.6,30.28,SE,135,0.0,4.0,0,0.00,,,0.00,meteohub,2013-03-30 23:18:00,
2013-03-30 19:19:00,46.6,46.6,30.28,WSW,248,1.0,4.0,0,0.00,,,0.00,meteohub,2013-03-30 23:19:00,
2013-03-30 19:22:00,46.2,46.2,30.28,South,180,0.0,2.0,0,0.00,,,0.00,meteohub,2013-03-30 23:22:00,
2013-03-30 19:23:00,46.2,46.2,30.28,South,180,0.0,2.0,0,0.00,,,0.00,meteohub,2013-03-30 23:23:00,
2013-03-30 19:25:00,45.9,45.9,30.28,South,180,0.0,2.0,0,0.00,,,0.00,meteohub,2013-03-30 23:25:00,
2013-03-30 19:27:00,45.7,45.7,30.28,South,180,0.0,2.0,0,0.00,,,0.00,meteohub,2013-03-30 23:27:00,
2013-03-30 19:28:00,45.7,45.7,30.29,South,180,0.0,2.0,0,0.00,,,0.00,meteohub,2013-03-30 23:28:00,
2013-03-30 19:29:00,45.5,45.5,30.28,South,180,0.0,2.0,0,0.00,,,0.00,meteohub,2013-03-30 23:29:00,
2013-03-30 19:30:00,45.3,45.3,30.28,NW,315,1.0,2.0,0,0.00,,,0.00,meteohub,2013-03-30 23:30:00,
2013-03-30 19:32:00,45.1,45.1,30.28,SE,135,1.0,1.0,0,0.00,,,0.00,meteohub,2013-03-30 23:32:00,
2013-03-30 19:33:00,45.0,45.0,30.28,NW,315,2.0,2.0,0,0.00,,,0.00,meteohub,2013-03-30 23:33:00,
2013-03-30 19:34:00,45.0,45.0,30.29,SE,135,0.0,1.0,0,0.00,,,0.00,meteohub,2013-03-30 23:34:00,
2013-03-30 19:35:00,44.8,44.8,30.29,West,270,0.0,1.0,0,0.00,,,0.00,meteohub,2013-03-30 23:35:00,
2013-03-30 19:38:00,44.6,44.6,30.28,South,180,0.0,1.0,0,0.00,,,0.00,meteohub,2013-03-30 23:38:00,
2013-03-30 19:39:00,44.6,44.6,30.28,South,180,1.0,1.0,0,0.00,,,0.00,meteohub,2013-03-30 23:39:00,
2013-03-30 19:41:00,44.4,44.4,30.28,South,180,0.0,2.0,0,0.00,,,0.00,meteohub,2013-03-30 23:41:00,
2013-03-30 19:43:00,44.2,44.2,30.28,South,180,1.0,2.0,0,0.00,,,0.00,meteohub,2013-03-30 23:43:00,
2013-03-30 19:44:00,44.2,44.2,30.28,South,180,1.0,2.0,0,0.00,,,0.00,meteohub,2013-03-30 23:44:00,
2013-03-30 19:45:00,44.2,44.2,30.28,South,180,1.0,2.0,0,0.00,,,0.00,meteohub,2013-03-30 23:45:00,
2013-03-30 19:47:00,44.1,44.1,30.28,South,180,0.0,2.0,0,0.00,,,0.00,meteohub,2013-03-30 23:47:00,
2013-03-30 19:49:00,43.9,43.9,30.28,South,180,1.0,2.0,0,0.00,,,0.00,meteohub,2013-03-30 23:49:00,
2013-03-30 19:50:00,43.9,43.9,30.28,South,180,1.0,2.0,0,0.00,,,0.00,meteohub,2013-03-30 23:50:00,
2013-03-30 19:52:00,43.7,43.7,30.28,South,180,0.0,2.0,0,0.00,,,0.00,meteohub,2013-03-30 23:52:00,
2013-03-30 19:54:00,43.7,43.7,30.28,South,180,0.0,2.0,0,0.00,,,0.00,meteohub,2013-03-30 23:54:00,
2013-03-30 19:56:00,43.5,43.5,30.28,South,180,0.0,2.0,0,0.00,,,0.00,meteohub,2013-03-30 23:56:00,
2013-03-30 19:58:00,43.3,43.3,30.28,South,180,0.0,2.0,0,0.00,,,0.00,meteohub,2013-03-30 23:58:00,
2013-03-30 19:59:00,43.2,43.2,30.28,South,180,0.0,2.0,0,0.00,,,0.00,meteohub,2013-03-30 23:59:00,
2013-03-30 20:00:00,43.2,43.2,30.28,South,180,0.0,2.0,0,0.00,,,0.00,meteohub,2013-03-31 00:00:00,
2013-03-30 20:02:00,43.2,43.2,30.28,South,180,0.0,2.0,0,0.00,,,0.00,meteohub,2013-03-31 00:02:00,
2013-03-30 20:03:00,43.0,43.0,30.28,South,180,0.0,2.0,0,0.00,,,0.00,meteohub,2013-03-31 00:03:00,
2013-03-30 20:04:00,42.8,42.8,30.28,South,180,0.0,2.0,0,0.00,,,0.00,meteohub,2013-03-31 00:04:00,
2013-03-30 20:05:00,42.8,42.8,30.28,South,180,0.0,2.0,0,0.00,,,0.00,meteohub,2013-03-31 00:05:00,
2013-03-30 20:07:00,42.6,42.6,30.28,South,180,0.0,1.0,0,0.00,,,0.00,meteohub,2013-03-31 00:07:00,
2013-03-30 20:08:00,42.4,42.4,30.28,South,180,0.0,1.0,0,0.00,,,0.00,meteohub,2013-03-31 00:08:00,
2013-03-30 20:09:00,42.4,42.4,30.28,South,180,0.0,1.0,0,0.00,,,0.00,meteohub,2013-03-31 00:09:00,
2013-03-30 20:10:00,42.4,42.4,30.28,WSW,248,1.0,0.0,0,0.00,,,0.00,meteohub,2013-03-31 00:10:00,
2013-03-30 20:12:00,42.3,42.3,30.28,West,270,0.0,0.0,0,0.00,,,0.00,meteohub,2013-03-31 00:12:00,
2013-03-30 20:14:00,42.4,42.4,30.28,South,180,1.0,0.0,0,0.00,,,0.00,meteohub,2013-03-31 00:14:00,
2013-03-30 20:15:00,42.4,42.4,30.28,WSW,248,0.0,0.0,0,0.00,,,0.00,meteohub,2013-03-31 00:15:00,
2013-03-30 20:16:00,42.4,42.4,30.28,South,180,0.0,2.0,0,0.00,,,0.00,meteohub,2013-03-31 00:16:00,
2013-03-30 20:17:00,42.4,42.4,30.28,South,180,0.0,2.0,0,0.00,,,0.00,meteohub,2013-03-31 00:17:00,
2013-03-30 20:19:00,42.4,42.4,30.28,South,180,0.0,2.0,0,0.00,,,0.00,meteohub,2013-03-31 00:19:00,
2013-03-30 20:22:00,42.3,42.3,30.28,South,180,0.0,2.0,0,0.00,,,0.00,meteohub,2013-03-31 00:22:00,
2013-03-30 20:23:00,42.3,42.3,30.28,East,90,1.0,2.0,0,0.00,,,0.00,meteohub,2013-03-31 00:23:00,
2013-03-30 20:25:00,42.3,42.3,30.28,WSW,248,0.0,2.0,0,0.00,,,0.00,meteohub,2013-03-31 00:25:00,
2013-03-30 20:27:00,42.3,42.3,30.28,SE,135,0.0,2.0,0,0.00,,,0.00,meteohub,2013-03-31 00:27:00,
2013-03-30 20:29:00,42.3,42.3,30.27,SE,135,0.0,2.0,0,0.00,,,0.00,meteohub,2013-03-31 00:29:00,
2013-03-30 20:32:00,42.3,42.3,30.28,South,180,0.0,1.0,0,0.00,,,0.00,meteohub,2013-03-31 00:32:00,
2013-03-30 20:33:00,42.3,42.3,30.27,South,180,0.0,1.0,0,0.00,,,0.00,meteohub,2013-03-31 00:33:00,
2013-03-30 20:35:00,42.3,42.3,30.28,South,180,0.0,1.0,0,0.00,,,0.00,meteohub,2013-03-31 00:35:00,
2013-03-30 20:38:00,42.3,42.3,30.28,South,180,0.0,1.0,0,0.00,,,0.00,meteohub,2013-03-31 00:38:00,
2013-03-30 20:40:00,42.3,42.3,30.27,South,180,0.0,1.0,0,0.00,,,0.00,meteohub,2013-03-31 00:40:00,
2013-03-30 20:43:00,42.3,42.3,30.28,South,180,0.0,1.0,0,0.00,,,0.00,meteohub,2013-03-31 00:43:00,
2013-03-30 20:44:00,42.3,42.3,30.28,South,180,1.0,1.0,0,0.00,,,0.00,meteohub,2013-03-31 00:44:00,
2013-03-30 20:46:00,42.3,42.3,30.28,South,180,0.0,1.0,0,0.00,,,0.00,meteohub,2013-03-31 00:46:00,
2013-03-30 20:49:00,42.3,42.3,30.28,South,180,0.0,1.0,0,0.00,,,0.00,meteohub,2013-03-31 00:49:00,
2013-03-30 20:52:00,42.3,42.3,30.27,South,180,0.0,1.0,0,0.00,,,0.00,meteohub,2013-03-31 00:52:00,
2013-03-30 20:54:00,42.1,42.1,30.27,South,180,0.0,1.0,0,0.00,,,0.00,meteohub,2013-03-31 00:54:00,
2013-03-30 20:55:00,42.1,42.1,30.27,South,180,0.0,1.0,0,0.00,,,0.00,meteohub,2013-03-31 00:55:00,
2013-03-30 20:57:00,42.1,42.1,30.27,South,180,0.0,1.0,0,0.00,,,0.00,meteohub,2013-03-31 00:57:00,
2013-03-30 21:00:00,42.1,42.1,30.27,South,180,0.0,1.0,0,0.00,,,0.00,meteohub,2013-03-31 01:00:00,
2013-03-30 21:01:00,42.1,42.1,30.27,South,180,0.0,0.0,0,0.00,,,0.00,meteohub,2013-03-31 01:01:00,
2013-03-30 21:03:00,42.3,42.3,30.28,South,180,0.0,0.0,0,0.00,,,0.00,meteohub,2013-03-31 01:03:00,
2013-03-30 21:05:00,42.3,42.3,30.27,South,180,0.0,0.0,0,0.00,,,0.00,meteohub,2013-03-31 01:05:00,
2013-03-30 21:06:00,42.3,42.3,30.28,South,180,0.0,0.0,0,0.00,,,0.00,meteohub,2013-03-31 01:06:00,
2013-03-30 21:08:00,42.3,42.3,30.28,South,180,1.0,0.0,0,0.00,,,0.00,meteohub,2013-03-31 01:08:00,
2013-03-30 21:10:00,42.1,42.1,30.28,South,180,0.0,0.0,0,0.00,,,0.00,meteohub,2013-03-31 01:10:00,
2013-03-30 21:11:00,42.1,42.1,30.28,South,180,0.0,0.0,0,0.00,,,0.00,meteohub,2013-03-31 01:11:00,
2013-03-30 21:12:00,42.1,42.1,30.27,South,180,0.0,0.0,0,0.00,,,0.00,meteohub,2013-03-31 01:12:00,
2013-03-30 21:13:00,41.9,41.9,30.27,South,180,0.0,0.0,0,0.00,,,0.00,meteohub,2013-03-31 01:13:00,
2013-03-30 21:15:00,41.9,41.9,30.27,South,180,0.0,1.0,0,0.00,,,0.00,meteohub,2013-03-31 01:15:00,
2013-03-30 21:17:00,41.9,41.9,30.27,South,180,0.0,1.0,0,0.00,,,0.00,meteohub,2013-03-31 01:17:00,
2013-03-30 21:18:00,41.9,41.9,30.27,South,180,0.0,1.0,0,0.00,,,0.00,meteohub,2013-03-31 01:18:00,
2013-03-30 21:21:00,41.9,41.9,30.27,South,180,0.0,1.0,0,0.00,,,0.00,meteohub,2013-03-31 01:21:00,
2013-03-30 21:22:00,41.9,41.9,30.27,South,180,0.0,1.0,0,0.00,,,0.00,meteohub,2013-03-31 01:22:00,
2013-03-30 21:23:00,41.7,41.7,30.27,East,90,0.0,1.0,0,0.00,,,0.00,meteohub,2013-03-31 01:23:00,
2013-03-30 21:24:00,41.7,41.7,30.27,East,90,0.0,1.0,0,0.00,,,0.00,meteohub,2013-03-31 01:24:00,
2013-03-30 21:27:00,41.5,41.5,30.27,East,90,0.0,0.0,0,0.00,,,0.00,meteohub,2013-03-31 01:27:00,
2013-03-30 21:28:00,41.5,41.5,30.27,East,90,1.0,0.0,0,0.00,,,0.00,meteohub,2013-03-31 01:28:00,
2013-03-30 21:30:00,41.5,41.5,30.27,East,90,1.0,0.0,0,0.00,,,0.00,meteohub,2013-03-31 01:30:00,
2013-03-30 21:33:00,41.5,41.5,30.27,East,90,1.0,1.0,0,0.00,,,0.00,meteohub,2013-03-31 01:33:00,
2013-03-30 21:34:00,41.5,41.5,30.27,East,90,0.0,1.0,0,0.00,,,0.00,meteohub,2013-03-31 01:34:00,
2013-03-30 21:35:00,41.5,41.5,30.27,East,90,0.0,1.0,0,0.00,,,0.00,meteohub,2013-03-31 01:35:00,
2013-03-30 21:39:00,41.5,41.5,30.27,East,90,0.0,1.0,0,0.00,,,0.00,meteohub,2013-03-31 01:39:00,
2013-03-30 21:40:00,41.5,41.5,30.27,North,0,0.0,1.0,0,0.00,,,0.00,meteohub,2013-03-31 01:40:00,
2013-03-30 21:41:00,41.5,41.5,30.27,North,0,1.0,1.0,0,0.00,,,0.00,meteohub,2013-03-31 01:41:00,
2013-03-30 21:44:00,41.5,41.5,30.27,East,90,1.0,1.0,0,0.00,,,0.00,meteohub,2013-03-31 01:44:00,
2013-03-30 21:45:00,41.5,41.5,30.27,East,90,1.0,1.0,0,0.00,,,0.00,meteohub,2013-03-31 01:45:00,
2013-03-30 21:46:00,41.5,41.5,30.27,East,90,1.0,2.0,0,0.00,,,0.00,meteohub,2013-03-31 01:46:00,
2013-03-30 21:50:00,41.4,41.4,30.27,East,90,2.0,2.0,0,0.00,,,0.00,meteohub,2013-03-31 01:50:00,
2013-03-30 21:51:00,41.4,41.4,30.27,SE,135,2.0,2.0,0,0.00,,,0.00,meteohub,2013-03-31 01:51:00,
2013-03-30 21:52:00,41.4,41.4,30.27,SE,135,2.0,2.0,0,0.00,,,0.00,meteohub,2013-03-31 01:52:00,
2013-03-30 21:55:00,41.2,41.2,30.27,SE,135,1.0,2.0,0,0.00,,,0.00,meteohub,2013-03-31 01:55:00,
2013-03-30 21:57:00,41.2,41.2,30.27,SE,135,1.0,2.0,0,0.00,,,0.00,meteohub,2013-03-31 01:57:00,
2013-03-30 22:00:00,41.0,41.0,30.27,SE,135,1.0,2.0,0,0.00,,,0.00,meteohub,2013-03-31 02:00:00,
2013-03-30 22:02:00,41.0,41.0,30.27,SE,135,1.0,2.0,0,0.00,,,0.00,meteohub,2013-03-31 02:02:00,
2013-03-30 22:03:00,41.0,41.0,30.27,SE,135,1.0,2.0,0,0.00,,,0.00,meteohub,2013-03-31 02:03:00,
2013-03-30 22:05:00,41.0,41.0,30.26,SE,135,1.0,2.0,0,0.00,,,0.00,meteohub,2013-03-31 02:05:00,
2013-03-30 22:08:00,40.6,40.6,30.27,East,90,2.0,2.0,0,0.00,,,0.00,meteohub,2013-03-31 02:08:00,
2013-03-30 22:09:00,40.5,40.5,30.27,East,90,0.0,2.0,0,0.00,,,0.00,meteohub,2013-03-31 02:09:00,
2013-03-30 22:11:00,40.5,40.5,30.27,East,90,0.0,2.0,0,0.00,,,0.00,meteohub,2013-03-31 02:11:00,
2013-03-30 22:13:00,40.5,40.5,30.26,East,90,2.0,2.0,0,0.00,,,0.00,meteohub,2013-03-31 02:13:00,
2013-03-30 22:14:00,40.5,40.5,30.27,East,90,0.0,2.0,0,0.00,,,0.00,meteohub,2013-03-31 02:14:00,
2013-03-30 22:15:00,40.3,40.3,30.27,East,90,2.0,2.0,0,0.00,,,0.00,meteohub,2013-03-31 02:15:00,
2013-03-30 22:17:00,40.3,40.3,30.27,East,90,2.0,2.0,0,0.00,,,0.00,meteohub,2013-03-31 02:17:00,
2013-03-30 22:18:00,40.1,40.1,30.26,East,90,2.0,2.0,0,0.00,,,0.00,meteohub,2013-03-31 02:18:00,
2013-03-30 22:20:00,40.1,40.1,30.26,East,90,0.0,2.0,0,0.00,,,0.00,meteohub,2013-03-31 02:20:00,
2013-03-30 22:22:00,40.1,40.1,30.26,East,90,1.0,2.0,0,0.00,,,0.00,meteohub,2013-03-31 02:22:00,
2013-03-30 22:23:00,39.9,39.9,30.26,East,90,1.0,2.0,0,0.00,,,0.00,meteohub,2013-03-31 02:23:00,
2013-03-30 22:24:00,39.9,39.9,30.26,East,90,2.0,2.0,0,0.00,,,0.00,meteohub,2013-03-31 02:24:00,
2013-03-30 22:26:00,39.9,39.9,30.26,East,90,2.0,2.0,0,0.00,,,0.00,meteohub,2013-03-31 02:26:00,
2013-03-30 22:27:00,39.9,39.9,30.26,East,90,2.0,2.0,0,0.00,,,0.00,meteohub,2013-03-31 02:27:00,
2013-03-30 22:29:00,39.9,39.9,30.25,East,90,2.0,2.0,0,0.00,,,0.00,meteohub,2013-03-31 02:29:00,
2013-03-30 22:30:00,39.9,39.9,30.26,SE,135,2.0,2.0,0,0.00,,,0.00,meteohub,2013-03-31 02:30:00,
2013-03-30 22:31:00,39.9,39.9,30.26,East,90,2.0,2.0,0,0.00,,,0.00,meteohub,2013-03-31 02:31:00,
2013-03-30 22:33:00,39.9,39.9,30.26,SE,135,1.0,2.0,0,0.00,,,0.00,meteohub,2013-03-31 02:33:00,
2013-03-30 22:36:00,39.7,39.7,30.26,East,90,2.0,2.0,0,0.00,,,0.00,meteohub,2013-03-31 02:36:00,
2013-03-30 22:37:00,39.7,39.7,30.26,East,90,0.0,2.0,0,0.00,,,0.00,meteohub,2013-03-31 02:37:00,
2013-03-30 22:38:00,39.7,39.7,30.26,East,90,0.0,2.0,0,0.00,,,0.00,meteohub,2013-03-31 02:38:00,
2013-03-30 22:41:00,39.6,39.6,30.26,SE,135,2.0,2.0,0,0.00,,,0.00,meteohub,2013-03-31 02:41:00,
2013-03-30 22:42:00,39.4,39.4,30.26,SE,135,2.0,2.0,0,0.00,,,0.00,meteohub,2013-03-31 02:42:00,
2013-03-30 22:43:00,39.4,39.4,30.26,East,90,2.0,2.0,0,0.00,,,0.00,meteohub,2013-03-31 02:43:00,
2013-03-30 22:44:00,39.4,39.4,30.26,SE,135,2.0,2.0,0,0.00,,,0.00,meteohub,2013-03-31 02:44:00,
2013-03-30 22:47:00,39.2,39.2,30.26,SE,135,2.0,2.0,0,0.00,,,0.00,meteohub,2013-03-31 02:47:00,
2013-03-30 22:48:00,39.4,39.4,30.26,SE,135,2.0,2.0,0,0.00,,,0.00,meteohub,2013-03-31 02:48:00,
2013-03-30 22:49:00,39.2,39.2,30.26,East,90,2.0,2.0,0,0.00,,,0.00,meteohub,2013-03-31 02:49:00,
2013-03-30 22:53:00,39.4,39.4,30.26,SE,135,2.0,2.0,0,0.00,,,0.00,meteohub,2013-03-31 02:53:00,
2013-03-30 22:54:00,39.4,39.4,30.25,East,90,3.0,3.0,0,0.00,,,0.00,meteohub,2013-03-31 02:54:00,
2013-03-30 22:55:00,39.4,39.4,30.26,East,90,2.0,2.0,0,0.00,,,0.00,meteohub,2013-03-31 02:55:00,
2013-03-30 22:58:00,39.4,39.4,30.26,East,90,2.0,3.0,0,0.00,,,0.00,meteohub,2013-03-31 02:58:00,
2013-03-30 22:59:00,39.4,39.4,30.25,SE,135,2.0,3.0,0,0.00,,,0.00,meteohub,2013-03-31 02:59:00,
2013-03-30 23:00:00,39.6,39.6,30.26,SE,135,2.0,3.0,0,0.00,,,0.00,meteohub,2013-03-31 03:00:00,
2013-03-30 23:04:00,39.6,39.6,30.26,SE,135,2.0,3.0,0,0.00,,,0.00,meteohub,2013-03-31 03:04:00,
2013-03-30 23:05:00,39.6,39.6,30.26,SE,135,2.0,3.0,0,0.00,,,0.00,meteohub,2013-03-31 03:05:00,
2013-03-30 23:07:00,39.9,39.9,30.26,East,90,3.0,3.0,0,0.00,,,0.00,meteohub,2013-03-31 03:07:00,
2013-03-30 23:10:00,40.1,40.1,30.26,SE,135,2.0,3.0,0,0.00,,,0.00,meteohub,2013-03-31 03:10:00,
2013-03-30 23:13:00,40.3,40.3,30.26,SE,135,3.0,4.0,0,0.00,,,0.00,meteohub,2013-03-31 03:13:00,
2013-03-30 23:15:00,40.3,40.3,30.26,SE,135,2.0,4.0,0,0.00,,,0.00,meteohub,2013-03-31 03:15:00,
2013-03-30 23:16:00,40.3,40.3,30.25,SE,135,2.0,4.0,0,0.00,,,0.00,meteohub,2013-03-31 03:16:00,
2013-03-30 23:20:00,40.3,40.3,30.25,East,90,3.0,4.0,0,0.00,,,0.00,meteohub,2013-03-31 03:20:00,
2013-03-30 23:21:00,40.3,40.3,30.26,SE,135,2.0,4.0,0,0.00,,,0.00,meteohub,2013-03-31 03:21:00,
2013-03-30 23:22:00,40.3,40.3,30.25,SE,135,2.0,4.0,0,0.00,,,0.00,meteohub,2013-03-31 03:22:00,
2013-03-30 23:26:00,40.1,40.1,30.25,SE,135,2.0,3.0,0,0.00,,,0.00,meteohub,2013-03-31 03:26:00,
2013-03-30 23:27:00,40.1,40.1,30.25,SE,135,3.0,3.0,0,0.00,,,0.00,meteohub,2013-03-31 03:27:00,
2013-03-30 23:29:00,40.1,40.1,30.25,East,90,3.0,3.0,0,0.00,,,0.00,meteohub,2013-03-31 03:29:00,
2013-03-30 23:31:00,40.1,40.1,30.25,SE,135,3.0,3.0,0,0.00,,,0.00,meteohub,2013-03-31 03:31:00,
2013-03-30 23:32:00,40.1,40.1,30.25,SE,135,2.0,3.0,0,0.00,,,0.00,meteohub,2013-03-31 03:32:00,
2013-03-30 23:33:00,40.1,40.1,30.25,SE,135,3.0,3.0,0,0.00,,,0.00,meteohub,2013-03-31 03:33:00,
2013-03-30 23:34:00,40.1,40.1,30.25,SE,135,3.0,3.0,0,0.00,,,0.00,meteohub,2013-03-31 03:34:00,
2013-03-30 23:37:00,39.9,39.9,30.25,East,90,2.0,3.0,0,0.00,,,0.00,meteohub,2013-03-31 03:37:00,
2013-03-30 23:39:00,39.9,39.9,30.25,ESE,113,2.0,3.0,0,0.00,,,0.00,meteohub,2013-03-31 03:39:00,
2013-03-30 23:40:00,39.9,39.9,30.25,East,90,2.0,3.0,0,0.00,,,0.00,meteohub,2013-03-31 03:40:00,
2013-03-30 23:42:00,39.9,39.9,30.25,SE,135,3.0,3.0,0,0.00,,,0.00,meteohub,2013-03-31 03:42:00,
2013-03-30 23:44:00,39.9,39.9,30.25,SE,135,2.0,3.0,0,0.00,,,0.00,meteohub,2013-03-31 03:44:00,
2013-03-30 23:46:00,39.9,39.9,30.25,East,90,3.0,3.0,0,0.00,,,0.00,meteohub,2013-03-31 03:46:00,
2013-03-30 23:47:00,39.9,39.9,30.24,SE,135,2.0,3.0,0,0.00,,,0.00,meteohub,2013-03-31 03:47:00,
2013-03-30 23:48:00,39.9,39.9,30.24,East,90,2.0,3.0,0,0.00,,,0.00,meteohub,2013-03-31 03:48:00,
2013-03-30 23:49:00,39.9,39.9,30.25,East,90,2.0,3.0,0,0.00,,,0.00,meteohub,2013-03-31 03:49:00,
2013-03-30 23:51:00,39.9,39.9,30.25,East,90,2.0,3.0,0,0.00,,,0.00,meteohub,2013-03-31 03:51:00,
2013-03-30 23:53:00,39.7,39.7,30.24,SE,135,2.0,3.0,0,0.00,,,0.00,meteohub,2013-03-31 03:53:00,
2013-03-30 23:55:00,39.7,39.7,30.24,SE,135,2.0,3.0,0,0.00,,,0.00,meteohub,2013-03-31 03:55:00,
2013-03-30 23:56:00,39.7,39.7,30.24,NE,45,2.0,3.0,0,0.00,,,0.00,meteohub,2013-03-31 03:56:00,
2013-03-30 23:57:00,39.7,39.7,30.24,NE,45,2.0,3.0,0,0.00,,,0.00,meteohub,2013-03-31 03:57:00,
2013-03-30 23:58:00,39.7,39.7,30.24,East,90,2.0,3.0,0,0.00,,,0.00,meteohub,2013-03-31 03:58:00,